<?xml version="1.0" encoding="UTF-8" standalone="no" ?>
<gpx xmlns="http://www.topografix.com/GPX/1/1" xmlns:xsi="http://www.w3.org/2001/XMLSchema-instance" xsi:schemaLocation="http://www.topografix.com/GPX/1/1 http://www.topografix.com/GPX/1/1/gpx.xsd" version="1.1" creator="VisuGPX - https://www.visugpx.com">
  <metadata>
    <name>4 vents_La Chaise Dieu</name>
    <desc><![CDATA[Parcours VTT dans le Forez du Gite des 4 vents (Courpiere) jusqu'à la Chaise Dieu.]]></desc>
  </metadata>
  <trk>
    <name><![CDATA[4 vents-La chaise Dieu]]></name>
    <trkseg>
      <trkpt lat="45.75525" lon="3.57405">
        <ele>458</ele>
        <time>2017-11-30T14:43:53Z</time>
      </trkpt>
      <trkpt lat="45.75494" lon="3.57399">
        <ele>457</ele>
        <time>2017-11-30T14:45:53Z</time>
      </trkpt>
      <trkpt lat="45.75545" lon="3.57276">
        <ele>458</ele>
        <time>2017-11-30T14:47:53Z</time>
      </trkpt>
      <trkpt lat="45.75542" lon="3.57265">
        <ele>458</ele>
        <time>2017-11-30T14:49:53Z</time>
      </trkpt>
      <trkpt lat="45.75246" lon="3.57157">
        <ele>460</ele>
        <time>2017-11-30T14:51:53Z</time>
      </trkpt>
      <trkpt lat="45.75119" lon="3.57115">
        <ele>456</ele>
        <time>2017-11-30T14:53:53Z</time>
      </trkpt>
      <trkpt lat="45.75003" lon="3.57083">
        <ele>460</ele>
        <time>2017-11-30T14:55:53Z</time>
      </trkpt>
      <trkpt lat="45.74947" lon="3.57106">
        <ele>454</ele>
        <time>2017-11-30T14:57:53Z</time>
      </trkpt>
      <trkpt lat="45.7492" lon="3.57139">
        <ele>452</ele>
        <time>2017-11-30T14:59:53Z</time>
      </trkpt>
      <trkpt lat="45.74804" lon="3.57213">
        <ele>440</ele>
        <time>2017-11-30T15:01:53Z</time>
      </trkpt>
      <trkpt lat="45.74706" lon="3.5729">
        <ele>432</ele>
        <time>2017-11-30T15:03:53Z</time>
      </trkpt>
      <trkpt lat="45.74631" lon="3.5732">
        <ele>425</ele>
        <time>2017-11-30T15:05:53Z</time>
      </trkpt>
      <trkpt lat="45.74476" lon="3.57347">
        <ele>406</ele>
        <time>2017-11-30T15:07:53Z</time>
      </trkpt>
      <trkpt lat="45.74371" lon="3.57398">
        <ele>394</ele>
        <time>2017-11-30T15:09:53Z</time>
      </trkpt>
      <trkpt lat="45.74271" lon="3.57458">
        <ele>376</ele>
        <time>2017-11-30T15:11:53Z</time>
      </trkpt>
      <trkpt lat="45.74247" lon="3.57428">
        <ele>373</ele>
        <time>2017-11-30T15:13:53Z</time>
      </trkpt>
      <trkpt lat="45.74227" lon="3.57405">
        <ele>368</ele>
        <time>2017-11-30T15:15:53Z</time>
      </trkpt>
      <trkpt lat="45.74258" lon="3.57319">
        <ele>365</ele>
        <time>2017-11-30T15:17:53Z</time>
      </trkpt>
      <trkpt lat="45.74306" lon="3.57264">
        <ele>365</ele>
        <time>2017-11-30T15:19:53Z</time>
      </trkpt>
      <trkpt lat="45.74319" lon="3.57208">
        <ele>360</ele>
        <time>2017-11-30T15:21:53Z</time>
      </trkpt>
      <trkpt lat="45.74314" lon="3.57144">
        <ele>353</ele>
        <time>2017-11-30T15:23:53Z</time>
      </trkpt>
      <trkpt lat="45.74306" lon="3.57116">
        <ele>350</ele>
        <time>2017-11-30T15:25:53Z</time>
      </trkpt>
      <trkpt lat="45.74291" lon="3.57118">
        <ele>347</ele>
        <time>2017-11-30T15:27:53Z</time>
      </trkpt>
      <trkpt lat="45.74294" lon="3.57168">
        <ele>350</ele>
        <time>2017-11-30T15:29:53Z</time>
      </trkpt>
      <trkpt lat="45.74288" lon="3.57213">
        <ele>353</ele>
        <time>2017-11-30T15:31:53Z</time>
      </trkpt>
      <trkpt lat="45.74262" lon="3.57241">
        <ele>351</ele>
        <time>2017-11-30T15:33:53Z</time>
      </trkpt>
      <trkpt lat="45.74223" lon="3.57266">
        <ele>350</ele>
        <time>2017-11-30T15:35:53Z</time>
      </trkpt>
      <trkpt lat="45.74197" lon="3.57305">
        <ele>353</ele>
        <time>2017-11-30T15:37:53Z</time>
      </trkpt>
      <trkpt lat="45.74181" lon="3.57369">
        <ele>355</ele>
        <time>2017-11-30T15:39:53Z</time>
      </trkpt>
      <trkpt lat="45.74181" lon="3.57421">
        <ele>358</ele>
        <time>2017-11-30T15:41:53Z</time>
      </trkpt>
      <trkpt lat="45.74187" lon="3.57479">
        <ele>358</ele>
        <time>2017-11-30T15:43:53Z</time>
      </trkpt>
      <trkpt lat="45.74193" lon="3.57601">
        <ele>357</ele>
        <time>2017-11-30T15:45:53Z</time>
      </trkpt>
      <trkpt lat="45.7417" lon="3.5761">
        <ele>355</ele>
        <time>2017-11-30T15:47:53Z</time>
      </trkpt>
      <trkpt lat="45.74153" lon="3.57563">
        <ele>359</ele>
        <time>2017-11-30T15:49:53Z</time>
      </trkpt>
      <trkpt lat="45.74139" lon="3.57473">
        <ele>363</ele>
        <time>2017-11-30T15:51:53Z</time>
      </trkpt>
      <trkpt lat="45.74127" lon="3.57385">
        <ele>363</ele>
        <time>2017-11-30T15:53:53Z</time>
      </trkpt>
      <trkpt lat="45.74125" lon="3.57317">
        <ele>357</ele>
        <time>2017-11-30T15:55:53Z</time>
      </trkpt>
      <trkpt lat="45.74122" lon="3.57274">
        <ele>354</ele>
        <time>2017-11-30T15:57:53Z</time>
      </trkpt>
      <trkpt lat="45.74143" lon="3.57258">
        <ele>350</ele>
        <time>2017-11-30T15:59:53Z</time>
      </trkpt>
      <trkpt lat="45.74163" lon="3.57209">
        <ele>345</ele>
        <time>2017-11-30T16:01:53Z</time>
      </trkpt>
      <trkpt lat="45.74202" lon="3.57103">
        <ele>341</ele>
        <time>2017-11-30T16:03:53Z</time>
      </trkpt>
      <trkpt lat="45.7423" lon="3.57048">
        <ele>342</ele>
        <time>2017-11-30T16:05:53Z</time>
      </trkpt>
      <trkpt lat="45.74226" lon="3.56967">
        <ele>351</ele>
        <time>2017-11-30T16:07:53Z</time>
      </trkpt>
      <trkpt lat="45.74274" lon="3.56809">
        <ele>363</ele>
        <time>2017-11-30T16:09:53Z</time>
      </trkpt>
      <trkpt lat="45.74308" lon="3.56728">
        <ele>363</ele>
        <time>2017-11-30T16:11:53Z</time>
      </trkpt>
      <trkpt lat="45.74344" lon="3.5665">
        <ele>359</ele>
        <time>2017-11-30T16:13:53Z</time>
      </trkpt>
      <trkpt lat="45.74345" lon="3.56595">
        <ele>357</ele>
        <time>2017-11-30T16:15:53Z</time>
      </trkpt>
      <trkpt lat="45.7433" lon="3.56561">
        <ele>358</ele>
        <time>2017-11-30T16:17:53Z</time>
      </trkpt>
      <trkpt lat="45.74304" lon="3.56557">
        <ele>361</ele>
        <time>2017-11-30T16:19:53Z</time>
      </trkpt>
      <trkpt lat="45.74281" lon="3.56562">
        <ele>365</ele>
        <time>2017-11-30T16:21:53Z</time>
      </trkpt>
      <trkpt lat="45.74265" lon="3.56605">
        <ele>370</ele>
        <time>2017-11-30T16:23:53Z</time>
      </trkpt>
      <trkpt lat="45.74244" lon="3.56631">
        <ele>374</ele>
        <time>2017-11-30T16:25:53Z</time>
      </trkpt>
      <trkpt lat="45.74217" lon="3.567">
        <ele>378</ele>
        <time>2017-11-30T16:27:53Z</time>
      </trkpt>
      <trkpt lat="45.74143" lon="3.56738">
        <ele>386</ele>
        <time>2017-11-30T16:29:53Z</time>
      </trkpt>
      <trkpt lat="45.74081" lon="3.56764">
        <ele>392</ele>
        <time>2017-11-30T16:31:53Z</time>
      </trkpt>
      <trkpt lat="45.74037" lon="3.56807">
        <ele>393</ele>
        <time>2017-11-30T16:33:53Z</time>
      </trkpt>
      <trkpt lat="45.74011" lon="3.56794">
        <ele>394</ele>
        <time>2017-11-30T16:35:53Z</time>
      </trkpt>
      <trkpt lat="45.73982" lon="3.56762">
        <ele>396</ele>
        <time>2017-11-30T16:37:53Z</time>
      </trkpt>
      <trkpt lat="45.73949" lon="3.5676">
        <ele>397</ele>
        <time>2017-11-30T16:39:53Z</time>
      </trkpt>
      <trkpt lat="45.73743" lon="3.56867">
        <ele>413</ele>
        <time>2017-11-30T16:41:53Z</time>
      </trkpt>
      <trkpt lat="45.7369" lon="3.56899">
        <ele>419</ele>
        <time>2017-11-30T16:43:53Z</time>
      </trkpt>
      <trkpt lat="45.73606" lon="3.56923">
        <ele>429</ele>
        <time>2017-11-30T16:45:53Z</time>
      </trkpt>
      <trkpt lat="45.73542" lon="3.56968">
        <ele>438</ele>
        <time>2017-11-30T16:47:53Z</time>
      </trkpt>
      <trkpt lat="45.73463" lon="3.56974">
        <ele>451</ele>
        <time>2017-11-30T16:49:53Z</time>
      </trkpt>
      <trkpt lat="45.73344" lon="3.56942">
        <ele>464</ele>
        <time>2017-11-30T16:51:53Z</time>
      </trkpt>
      <trkpt lat="45.73265" lon="3.56869">
        <ele>466</ele>
        <time>2017-11-30T16:53:53Z</time>
      </trkpt>
      <trkpt lat="45.73224" lon="3.56807">
        <ele>470</ele>
        <time>2017-11-30T16:55:53Z</time>
      </trkpt>
      <trkpt lat="45.73172" lon="3.56715">
        <ele>475</ele>
        <time>2017-11-30T16:57:53Z</time>
      </trkpt>
      <trkpt lat="45.73251" lon="3.5658">
        <ele>474</ele>
        <time>2017-11-30T16:59:53Z</time>
      </trkpt>
      <trkpt lat="45.73343" lon="3.56371">
        <ele>465</ele>
        <time>2017-11-30T17:01:53Z</time>
      </trkpt>
      <trkpt lat="45.73407" lon="3.56187">
        <ele>456</ele>
        <time>2017-11-30T17:03:53Z</time>
      </trkpt>
      <trkpt lat="45.73431" lon="3.5609">
        <ele>446</ele>
        <time>2017-11-30T17:05:53Z</time>
      </trkpt>
      <trkpt lat="45.73427" lon="3.56028">
        <ele>441</ele>
        <time>2017-11-30T17:07:53Z</time>
      </trkpt>
      <trkpt lat="45.7338" lon="3.56086">
        <ele>445</ele>
        <time>2017-11-30T17:09:53Z</time>
      </trkpt>
      <trkpt lat="45.7331" lon="3.56071">
        <ele>441</ele>
        <time>2017-11-30T17:11:53Z</time>
      </trkpt>
      <trkpt lat="45.73274" lon="3.56099">
        <ele>441</ele>
        <time>2017-11-30T17:13:53Z</time>
      </trkpt>
      <trkpt lat="45.73233" lon="3.56299">
        <ele>452</ele>
        <time>2017-11-30T17:15:53Z</time>
      </trkpt>
      <trkpt lat="45.73145" lon="3.56459">
        <ele>451</ele>
        <time>2017-11-30T17:17:53Z</time>
      </trkpt>
      <trkpt lat="45.73051" lon="3.56554">
        <ele>450</ele>
        <time>2017-11-30T17:19:53Z</time>
      </trkpt>
      <trkpt lat="45.72982" lon="3.56687">
        <ele>454</ele>
        <time>2017-11-30T17:21:53Z</time>
      </trkpt>
      <trkpt lat="45.7292" lon="3.56809">
        <ele>456</ele>
        <time>2017-11-30T17:23:53Z</time>
      </trkpt>
      <trkpt lat="45.72854" lon="3.5694">
        <ele>463</ele>
        <time>2017-11-30T17:25:53Z</time>
      </trkpt>
      <trkpt lat="45.72814" lon="3.57024">
        <ele>468</ele>
        <time>2017-11-30T17:27:53Z</time>
      </trkpt>
      <trkpt lat="45.72712" lon="3.57112">
        <ele>470</ele>
        <time>2017-11-30T17:29:53Z</time>
      </trkpt>
      <trkpt lat="45.72624" lon="3.5708">
        <ele>471</ele>
        <time>2017-11-30T17:31:53Z</time>
      </trkpt>
      <trkpt lat="45.72504" lon="3.57077">
        <ele>480</ele>
        <time>2017-11-30T17:33:53Z</time>
      </trkpt>
      <trkpt lat="45.72498" lon="3.5715">
        <ele>483</ele>
        <time>2017-11-30T17:35:53Z</time>
      </trkpt>
      <trkpt lat="45.72499" lon="3.5718">
        <ele>484</ele>
        <time>2017-11-30T17:37:53Z</time>
      </trkpt>
      <trkpt lat="45.7249" lon="3.57217">
        <ele>485</ele>
        <time>2017-11-30T17:39:53Z</time>
      </trkpt>
      <trkpt lat="45.72505" lon="3.57258">
        <ele>485</ele>
        <time>2017-11-30T17:41:53Z</time>
      </trkpt>
      <trkpt lat="45.72494" lon="3.57362">
        <ele>487</ele>
        <time>2017-11-30T17:43:53Z</time>
      </trkpt>
      <trkpt lat="45.72473" lon="3.57501">
        <ele>492</ele>
        <time>2017-11-30T17:45:53Z</time>
      </trkpt>
      <trkpt lat="45.72452" lon="3.57529">
        <ele>495</ele>
        <time>2017-11-30T17:47:53Z</time>
      </trkpt>
      <trkpt lat="45.72374" lon="3.57547">
        <ele>503</ele>
        <time>2017-11-30T17:49:53Z</time>
      </trkpt>
      <trkpt lat="45.72258" lon="3.57583">
        <ele>517</ele>
        <time>2017-11-30T17:51:53Z</time>
      </trkpt>
      <trkpt lat="45.72138" lon="3.57628">
        <ele>524</ele>
        <time>2017-11-30T17:53:53Z</time>
      </trkpt>
      <trkpt lat="45.72043" lon="3.57657">
        <ele>531</ele>
        <time>2017-11-30T17:55:53Z</time>
      </trkpt>
      <trkpt lat="45.71891" lon="3.57663">
        <ele>538</ele>
        <time>2017-11-30T17:57:53Z</time>
      </trkpt>
      <trkpt lat="45.71603" lon="3.57782">
        <ele>535</ele>
        <time>2017-11-30T17:59:53Z</time>
      </trkpt>
      <trkpt lat="45.71616" lon="3.57879">
        <ele>537</ele>
        <time>2017-11-30T18:01:53Z</time>
      </trkpt>
      <trkpt lat="45.71616" lon="3.5792">
        <ele>538</ele>
        <time>2017-11-30T18:03:53Z</time>
      </trkpt>
      <trkpt lat="45.71535" lon="3.57899">
        <ele>530</ele>
        <time>2017-11-30T18:05:53Z</time>
      </trkpt>
      <trkpt lat="45.7141" lon="3.57864">
        <ele>519</ele>
        <time>2017-11-30T18:07:53Z</time>
      </trkpt>
      <trkpt lat="45.7121" lon="3.57849">
        <ele>507</ele>
        <time>2017-11-30T18:09:53Z</time>
      </trkpt>
      <trkpt lat="45.7119" lon="3.57728">
        <ele>509</ele>
        <time>2017-11-30T18:11:53Z</time>
      </trkpt>
      <trkpt lat="45.71168" lon="3.57565">
        <ele>517</ele>
        <time>2017-11-30T18:13:53Z</time>
      </trkpt>
      <trkpt lat="45.70754" lon="3.57573">
        <ele>514</ele>
        <time>2017-11-30T18:15:53Z</time>
      </trkpt>
      <trkpt lat="45.7072" lon="3.57587">
        <ele>513</ele>
        <time>2017-11-30T18:17:53Z</time>
      </trkpt>
      <trkpt lat="45.70684" lon="3.57633">
        <ele>512</ele>
        <time>2017-11-30T18:19:53Z</time>
      </trkpt>
      <trkpt lat="45.70634" lon="3.57684">
        <ele>510</ele>
        <time>2017-11-30T18:21:53Z</time>
      </trkpt>
      <trkpt lat="45.70577" lon="3.5771">
        <ele>509</ele>
        <time>2017-11-30T18:23:53Z</time>
      </trkpt>
      <trkpt lat="45.70465" lon="3.57718">
        <ele>497</ele>
        <time>2017-11-30T18:25:53Z</time>
      </trkpt>
      <trkpt lat="45.70367" lon="3.57762">
        <ele>484</ele>
        <time>2017-11-30T18:27:53Z</time>
      </trkpt>
      <trkpt lat="45.70348" lon="3.57761">
        <ele>481</ele>
        <time>2017-11-30T18:29:53Z</time>
      </trkpt>
      <trkpt lat="45.70326" lon="3.5771">
        <ele>473</ele>
        <time>2017-11-30T18:31:53Z</time>
      </trkpt>
      <trkpt lat="45.70282" lon="3.57686">
        <ele>461</ele>
        <time>2017-11-30T18:33:53Z</time>
      </trkpt>
      <trkpt lat="45.70253" lon="3.57684">
        <ele>454</ele>
        <time>2017-11-30T18:35:53Z</time>
      </trkpt>
      <trkpt lat="45.70208" lon="3.57646">
        <ele>443</ele>
        <time>2017-11-30T18:37:53Z</time>
      </trkpt>
      <trkpt lat="45.70185" lon="3.57639">
        <ele>438</ele>
        <time>2017-11-30T18:39:53Z</time>
      </trkpt>
      <trkpt lat="45.7017" lon="3.57652">
        <ele>433</ele>
        <time>2017-11-30T18:41:53Z</time>
      </trkpt>
      <trkpt lat="45.70165" lon="3.57722">
        <ele>428</ele>
        <time>2017-11-30T18:43:53Z</time>
      </trkpt>
      <trkpt lat="45.70158" lon="3.57766">
        <ele>425</ele>
        <time>2017-11-30T18:45:53Z</time>
      </trkpt>
      <trkpt lat="45.70137" lon="3.57751">
        <ele>417</ele>
        <time>2017-11-30T18:47:53Z</time>
      </trkpt>
      <trkpt lat="45.70129" lon="3.57765">
        <ele>414</ele>
        <time>2017-11-30T18:49:53Z</time>
      </trkpt>
      <trkpt lat="45.70127" lon="3.57809">
        <ele>415</ele>
        <time>2017-11-30T18:51:53Z</time>
      </trkpt>
      <trkpt lat="45.70113" lon="3.57803">
        <ele>410</ele>
        <time>2017-11-30T18:53:53Z</time>
      </trkpt>
      <trkpt lat="45.70101" lon="3.57762">
        <ele>404</ele>
        <time>2017-11-30T18:55:53Z</time>
      </trkpt>
      <trkpt lat="45.70083" lon="3.5772">
        <ele>397</ele>
        <time>2017-11-30T18:57:53Z</time>
      </trkpt>
      <trkpt lat="45.70065" lon="3.57704">
        <ele>394</ele>
        <time>2017-11-30T18:59:53Z</time>
      </trkpt>
      <trkpt lat="45.70048" lon="3.5768">
        <ele>391</ele>
        <time>2017-11-30T19:01:53Z</time>
      </trkpt>
      <trkpt lat="45.70033" lon="3.57766">
        <ele>387</ele>
        <time>2017-11-30T19:03:53Z</time>
      </trkpt>
      <trkpt lat="45.70028" lon="3.57856">
        <ele>390</ele>
        <time>2017-11-30T19:05:53Z</time>
      </trkpt>
      <trkpt lat="45.70055" lon="3.57925">
        <ele>395</ele>
        <time>2017-11-30T19:07:53Z</time>
      </trkpt>
      <trkpt lat="45.70099" lon="3.5799">
        <ele>395</ele>
        <time>2017-11-30T19:09:53Z</time>
      </trkpt>
      <trkpt lat="45.70158" lon="3.58051">
        <ele>397</ele>
        <time>2017-11-30T19:11:53Z</time>
      </trkpt>
      <trkpt lat="45.70207" lon="3.58107">
        <ele>400</ele>
        <time>2017-11-30T19:13:53Z</time>
      </trkpt>
      <trkpt lat="45.70233" lon="3.58167">
        <ele>398</ele>
        <time>2017-11-30T19:15:53Z</time>
      </trkpt>
      <trkpt lat="45.70258" lon="3.58262">
        <ele>398</ele>
        <time>2017-11-30T19:17:53Z</time>
      </trkpt>
      <trkpt lat="45.70294" lon="3.58395">
        <ele>402</ele>
        <time>2017-11-30T19:19:53Z</time>
      </trkpt>
      <trkpt lat="45.70292" lon="3.58455">
        <ele>398</ele>
        <time>2017-11-30T19:21:53Z</time>
      </trkpt>
      <trkpt lat="45.7028" lon="3.58522">
        <ele>394</ele>
        <time>2017-11-30T19:23:53Z</time>
      </trkpt>
      <trkpt lat="45.70261" lon="3.58552">
        <ele>392</ele>
        <time>2017-11-30T19:25:53Z</time>
      </trkpt>
      <trkpt lat="45.70239" lon="3.58592">
        <ele>392</ele>
        <time>2017-11-30T19:27:53Z</time>
      </trkpt>
      <trkpt lat="45.70231" lon="3.5864">
        <ele>393</ele>
        <time>2017-11-30T19:29:53Z</time>
      </trkpt>
      <trkpt lat="45.70255" lon="3.58675">
        <ele>392</ele>
        <time>2017-11-30T19:31:53Z</time>
      </trkpt>
      <trkpt lat="45.70286" lon="3.58676">
        <ele>392</ele>
        <time>2017-11-30T19:33:53Z</time>
      </trkpt>
      <trkpt lat="45.70334" lon="3.58642">
        <ele>394</ele>
        <time>2017-11-30T19:35:53Z</time>
      </trkpt>
      <trkpt lat="45.70384" lon="3.58629">
        <ele>396</ele>
        <time>2017-11-30T19:37:53Z</time>
      </trkpt>
      <trkpt lat="45.70451" lon="3.58642">
        <ele>397</ele>
        <time>2017-11-30T19:39:53Z</time>
      </trkpt>
      <trkpt lat="45.70511" lon="3.58656">
        <ele>401</ele>
        <time>2017-11-30T19:41:53Z</time>
      </trkpt>
      <trkpt lat="45.70554" lon="3.5869">
        <ele>403</ele>
        <time>2017-11-30T19:43:53Z</time>
      </trkpt>
      <trkpt lat="45.70585" lon="3.58751">
        <ele>399</ele>
        <time>2017-11-30T19:45:53Z</time>
      </trkpt>
      <trkpt lat="45.70588" lon="3.5882">
        <ele>397</ele>
        <time>2017-11-30T19:47:53Z</time>
      </trkpt>
      <trkpt lat="45.70591" lon="3.58908">
        <ele>400</ele>
        <time>2017-11-30T19:49:53Z</time>
      </trkpt>
      <trkpt lat="45.70579" lon="3.58994">
        <ele>402</ele>
        <time>2017-11-30T19:51:53Z</time>
      </trkpt>
      <trkpt lat="45.7056" lon="3.59073">
        <ele>411</ele>
        <time>2017-11-30T19:53:53Z</time>
      </trkpt>
      <trkpt lat="45.70523" lon="3.59121">
        <ele>409</ele>
        <time>2017-11-30T19:55:53Z</time>
      </trkpt>
      <trkpt lat="45.70488" lon="3.59144">
        <ele>405</ele>
        <time>2017-11-30T19:57:53Z</time>
      </trkpt>
      <trkpt lat="45.70394" lon="3.59145">
        <ele>397</ele>
        <time>2017-11-30T19:59:53Z</time>
      </trkpt>
      <trkpt lat="45.70272" lon="3.59163">
        <ele>392</ele>
        <time>2017-11-30T20:01:53Z</time>
      </trkpt>
      <trkpt lat="45.70201" lon="3.59182">
        <ele>392</ele>
        <time>2017-11-30T20:03:53Z</time>
      </trkpt>
      <trkpt lat="45.70137" lon="3.59197">
        <ele>392</ele>
        <time>2017-11-30T20:05:53Z</time>
      </trkpt>
      <trkpt lat="45.70101" lon="3.59221">
        <ele>391</ele>
        <time>2017-11-30T20:07:53Z</time>
      </trkpt>
      <trkpt lat="45.7009" lon="3.59275">
        <ele>389</ele>
        <time>2017-11-30T20:09:53Z</time>
      </trkpt>
      <trkpt lat="45.70027" lon="3.59333">
        <ele>395</ele>
        <time>2017-11-30T20:11:53Z</time>
      </trkpt>
      <trkpt lat="45.69975" lon="3.59328">
        <ele>405</ele>
        <time>2017-11-30T20:13:53Z</time>
      </trkpt>
      <trkpt lat="45.69897" lon="3.59258">
        <ele>408</ele>
        <time>2017-11-30T20:15:53Z</time>
      </trkpt>
      <trkpt lat="45.69832" lon="3.59133">
        <ele>405</ele>
        <time>2017-11-30T20:17:53Z</time>
      </trkpt>
      <trkpt lat="45.69814" lon="3.59062">
        <ele>398</ele>
        <time>2017-11-30T20:19:53Z</time>
      </trkpt>
      <trkpt lat="45.69773" lon="3.5903">
        <ele>399</ele>
        <time>2017-11-30T20:21:53Z</time>
      </trkpt>
      <trkpt lat="45.69629" lon="3.59013">
        <ele>403</ele>
        <time>2017-11-30T20:23:53Z</time>
      </trkpt>
      <trkpt lat="45.6951" lon="3.59064">
        <ele>406</ele>
        <time>2017-11-30T20:25:53Z</time>
      </trkpt>
      <trkpt lat="45.69408" lon="3.59107">
        <ele>400</ele>
        <time>2017-11-30T20:27:53Z</time>
      </trkpt>
      <trkpt lat="45.69344" lon="3.59193">
        <ele>402</ele>
        <time>2017-11-30T20:29:53Z</time>
      </trkpt>
      <trkpt lat="45.69294" lon="3.59298">
        <ele>407</ele>
        <time>2017-11-30T20:31:53Z</time>
      </trkpt>
      <trkpt lat="45.69265" lon="3.59343">
        <ele>405</ele>
        <time>2017-11-30T20:33:53Z</time>
      </trkpt>
      <trkpt lat="45.69248" lon="3.59415">
        <ele>406</ele>
        <time>2017-11-30T20:35:53Z</time>
      </trkpt>
      <trkpt lat="45.69164" lon="3.59391">
        <ele>414</ele>
        <time>2017-11-30T20:37:53Z</time>
      </trkpt>
      <trkpt lat="45.69118" lon="3.59427">
        <ele>437</ele>
        <time>2017-11-30T20:39:53Z</time>
      </trkpt>
      <trkpt lat="45.69097" lon="3.59471">
        <ele>440</ele>
        <time>2017-11-30T20:41:53Z</time>
      </trkpt>
      <trkpt lat="45.69068" lon="3.59521">
        <ele>441</ele>
        <time>2017-11-30T20:43:53Z</time>
      </trkpt>
      <trkpt lat="45.6903" lon="3.59544">
        <ele>446</ele>
        <time>2017-11-30T20:45:53Z</time>
      </trkpt>
      <trkpt lat="45.68986" lon="3.59529">
        <ele>458</ele>
        <time>2017-11-30T20:47:53Z</time>
      </trkpt>
      <trkpt lat="45.68928" lon="3.59479">
        <ele>463</ele>
        <time>2017-11-30T20:49:53Z</time>
      </trkpt>
      <trkpt lat="45.68875" lon="3.59415">
        <ele>472</ele>
        <time>2017-11-30T20:51:53Z</time>
      </trkpt>
      <trkpt lat="45.68825" lon="3.59383">
        <ele>473</ele>
        <time>2017-11-30T20:53:53Z</time>
      </trkpt>
      <trkpt lat="45.68776" lon="3.59351">
        <ele>477</ele>
        <time>2017-11-30T20:55:53Z</time>
      </trkpt>
      <trkpt lat="45.6875" lon="3.59314">
        <ele>479</ele>
        <time>2017-11-30T20:57:53Z</time>
      </trkpt>
      <trkpt lat="45.68734" lon="3.59273">
        <ele>489</ele>
        <time>2017-11-30T20:59:53Z</time>
      </trkpt>
      <trkpt lat="45.68726" lon="3.59218">
        <ele>499</ele>
        <time>2017-11-30T21:01:53Z</time>
      </trkpt>
      <trkpt lat="45.68633" lon="3.5917">
        <ele>497</ele>
        <time>2017-11-30T21:03:53Z</time>
      </trkpt>
      <trkpt lat="45.68545" lon="3.59094">
        <ele>506</ele>
        <time>2017-11-30T21:05:53Z</time>
      </trkpt>
      <trkpt lat="45.6848" lon="3.59045">
        <ele>511</ele>
        <time>2017-11-30T21:07:53Z</time>
      </trkpt>
      <trkpt lat="45.68344" lon="3.59004">
        <ele>516</ele>
        <time>2017-11-30T21:09:53Z</time>
      </trkpt>
      <trkpt lat="45.68296" lon="3.58957">
        <ele>520</ele>
        <time>2017-11-30T21:11:53Z</time>
      </trkpt>
      <trkpt lat="45.68229" lon="3.58831">
        <ele>530</ele>
        <time>2017-11-30T21:13:53Z</time>
      </trkpt>
      <trkpt lat="45.68163" lon="3.58691">
        <ele>538</ele>
        <time>2017-11-30T21:15:53Z</time>
      </trkpt>
      <trkpt lat="45.68116" lon="3.5847">
        <ele>553</ele>
        <time>2017-11-30T21:17:53Z</time>
      </trkpt>
      <trkpt lat="45.68058" lon="3.58378">
        <ele>563</ele>
        <time>2017-11-30T21:19:53Z</time>
      </trkpt>
      <trkpt lat="45.67987" lon="3.58316">
        <ele>565</ele>
        <time>2017-11-30T21:21:53Z</time>
      </trkpt>
      <trkpt lat="45.67929" lon="3.5824">
        <ele>573</ele>
        <time>2017-11-30T21:23:53Z</time>
      </trkpt>
      <trkpt lat="45.67839" lon="3.58191">
        <ele>579</ele>
        <time>2017-11-30T21:25:53Z</time>
      </trkpt>
      <trkpt lat="45.67696" lon="3.58107">
        <ele>588</ele>
        <time>2017-11-30T21:27:53Z</time>
      </trkpt>
      <trkpt lat="45.6762" lon="3.58011">
        <ele>595</ele>
        <time>2017-11-30T21:29:53Z</time>
      </trkpt>
      <trkpt lat="45.67561" lon="3.57938">
        <ele>600</ele>
        <time>2017-11-30T21:31:53Z</time>
      </trkpt>
      <trkpt lat="45.67544" lon="3.57897">
        <ele>603</ele>
        <time>2017-11-30T21:33:53Z</time>
      </trkpt>
      <trkpt lat="45.67413" lon="3.57914">
        <ele>608</ele>
        <time>2017-11-30T21:35:53Z</time>
      </trkpt>
      <trkpt lat="45.67232" lon="3.57867">
        <ele>622</ele>
        <time>2017-11-30T21:37:53Z</time>
      </trkpt>
      <trkpt lat="45.67176" lon="3.57818">
        <ele>627</ele>
        <time>2017-11-30T21:39:53Z</time>
      </trkpt>
      <trkpt lat="45.6707" lon="3.57786">
        <ele>628</ele>
        <time>2017-11-30T21:41:53Z</time>
      </trkpt>
      <trkpt lat="45.67053" lon="3.57738">
        <ele>628</ele>
        <time>2017-11-30T21:43:53Z</time>
      </trkpt>
      <trkpt lat="45.66981" lon="3.57783">
        <ele>630</ele>
        <time>2017-11-30T21:45:53Z</time>
      </trkpt>
      <trkpt lat="45.66944" lon="3.57889">
        <ele>626</ele>
        <time>2017-11-30T21:47:53Z</time>
      </trkpt>
      <trkpt lat="45.66878" lon="3.57968">
        <ele>619</ele>
        <time>2017-11-30T21:49:53Z</time>
      </trkpt>
      <trkpt lat="45.66834" lon="3.57979">
        <ele>616</ele>
        <time>2017-11-30T21:51:53Z</time>
      </trkpt>
      <trkpt lat="45.66767" lon="3.57951">
        <ele>619</ele>
        <time>2017-11-30T21:53:53Z</time>
      </trkpt>
      <trkpt lat="45.66725" lon="3.5797">
        <ele>621</ele>
        <time>2017-11-30T21:55:53Z</time>
      </trkpt>
      <trkpt lat="45.66729" lon="3.58032">
        <ele>618</ele>
        <time>2017-11-30T21:57:53Z</time>
      </trkpt>
      <trkpt lat="45.66761" lon="3.58095">
        <ele>614</ele>
        <time>2017-11-30T21:59:53Z</time>
      </trkpt>
      <trkpt lat="45.66744" lon="3.5814">
        <ele>617</ele>
        <time>2017-11-30T22:01:53Z</time>
      </trkpt>
      <trkpt lat="45.66698" lon="3.58193">
        <ele>617</ele>
        <time>2017-11-30T22:03:53Z</time>
      </trkpt>
      <trkpt lat="45.66615" lon="3.58266">
        <ele>608</ele>
        <time>2017-11-30T22:05:53Z</time>
      </trkpt>
      <trkpt lat="45.66555" lon="3.58346">
        <ele>594</ele>
        <time>2017-11-30T22:07:53Z</time>
      </trkpt>
      <trkpt lat="45.66539" lon="3.58412">
        <ele>588</ele>
        <time>2017-11-30T22:09:53Z</time>
      </trkpt>
      <trkpt lat="45.66552" lon="3.58491">
        <ele>586</ele>
        <time>2017-11-30T22:11:53Z</time>
      </trkpt>
      <trkpt lat="45.66491" lon="3.58452">
        <ele>582</ele>
        <time>2017-11-30T22:13:53Z</time>
      </trkpt>
      <trkpt lat="45.66464" lon="3.58469">
        <ele>582</ele>
        <time>2017-11-30T22:15:53Z</time>
      </trkpt>
      <trkpt lat="45.66447" lon="3.58522">
        <ele>578</ele>
        <time>2017-11-30T22:17:53Z</time>
      </trkpt>
      <trkpt lat="45.66396" lon="3.58577">
        <ele>576</ele>
        <time>2017-11-30T22:19:53Z</time>
      </trkpt>
      <trkpt lat="45.66315" lon="3.5865">
        <ele>572</ele>
        <time>2017-11-30T22:21:53Z</time>
      </trkpt>
      <trkpt lat="45.66249" lon="3.58693">
        <ele>573</ele>
        <time>2017-11-30T22:23:53Z</time>
      </trkpt>
      <trkpt lat="45.66193" lon="3.58691">
        <ele>574</ele>
        <time>2017-11-30T22:25:53Z</time>
      </trkpt>
      <trkpt lat="45.66152" lon="3.58674">
        <ele>576</ele>
        <time>2017-11-30T22:27:53Z</time>
      </trkpt>
      <trkpt lat="45.66135" lon="3.58691">
        <ele>579</ele>
        <time>2017-11-30T22:29:53Z</time>
      </trkpt>
      <trkpt lat="45.66127" lon="3.58707">
        <ele>581</ele>
        <time>2017-11-30T22:31:53Z</time>
      </trkpt>
      <trkpt lat="45.66104" lon="3.5872">
        <ele>583</ele>
        <time>2017-11-30T22:33:53Z</time>
      </trkpt>
      <trkpt lat="45.66073" lon="3.58748">
        <ele>583</ele>
        <time>2017-11-30T22:35:53Z</time>
      </trkpt>
      <trkpt lat="45.6605" lon="3.58785">
        <ele>588</ele>
        <time>2017-11-30T22:37:53Z</time>
      </trkpt>
      <trkpt lat="45.66042" lon="3.58815">
        <ele>590</ele>
        <time>2017-11-30T22:39:53Z</time>
      </trkpt>
      <trkpt lat="45.66068" lon="3.58865">
        <ele>594</ele>
        <time>2017-11-30T22:41:53Z</time>
      </trkpt>
      <trkpt lat="45.66069" lon="3.58902">
        <ele>597</ele>
        <time>2017-11-30T22:43:53Z</time>
      </trkpt>
      <trkpt lat="45.66066" lon="3.5895">
        <ele>600</ele>
        <time>2017-11-30T22:45:53Z</time>
      </trkpt>
      <trkpt lat="45.66049" lon="3.59011">
        <ele>602</ele>
        <time>2017-11-30T22:47:53Z</time>
      </trkpt>
      <trkpt lat="45.6604" lon="3.59063">
        <ele>603</ele>
        <time>2017-11-30T22:49:53Z</time>
      </trkpt>
      <trkpt lat="45.66045" lon="3.59116">
        <ele>605</ele>
        <time>2017-11-30T22:51:53Z</time>
      </trkpt>
      <trkpt lat="45.66064" lon="3.59194">
        <ele>612</ele>
        <time>2017-11-30T22:53:53Z</time>
      </trkpt>
      <trkpt lat="45.66058" lon="3.5923">
        <ele>616</ele>
        <time>2017-11-30T22:55:53Z</time>
      </trkpt>
      <trkpt lat="45.66032" lon="3.59265">
        <ele>619</ele>
        <time>2017-11-30T22:57:53Z</time>
      </trkpt>
      <trkpt lat="45.66018" lon="3.59322">
        <ele>627</ele>
        <time>2017-11-30T22:59:53Z</time>
      </trkpt>
      <trkpt lat="45.66034" lon="3.59406">
        <ele>634</ele>
        <time>2017-11-30T23:01:53Z</time>
      </trkpt>
      <trkpt lat="45.66036" lon="3.59426">
        <ele>635</ele>
        <time>2017-11-30T23:03:53Z</time>
      </trkpt>
      <trkpt lat="45.66052" lon="3.59476">
        <ele>636</ele>
        <time>2017-11-30T23:05:53Z</time>
      </trkpt>
      <trkpt lat="45.66058" lon="3.5955">
        <ele>640</ele>
        <time>2017-11-30T23:07:53Z</time>
      </trkpt>
      <trkpt lat="45.66046" lon="3.59638">
        <ele>649</ele>
        <time>2017-11-30T23:09:53Z</time>
      </trkpt>
      <trkpt lat="45.66028" lon="3.59695">
        <ele>658</ele>
        <time>2017-11-30T23:11:53Z</time>
      </trkpt>
      <trkpt lat="45.65986" lon="3.59761">
        <ele>666</ele>
        <time>2017-11-30T23:13:53Z</time>
      </trkpt>
      <trkpt lat="45.65939" lon="3.5984">
        <ele>673</ele>
        <time>2017-11-30T23:15:53Z</time>
      </trkpt>
      <trkpt lat="45.65918" lon="3.59876">
        <ele>674</ele>
        <time>2017-11-30T23:17:53Z</time>
      </trkpt>
      <trkpt lat="45.65903" lon="3.59919">
        <ele>678</ele>
        <time>2017-11-30T23:19:53Z</time>
      </trkpt>
      <trkpt lat="45.6588" lon="3.59985">
        <ele>681</ele>
        <time>2017-11-30T23:21:53Z</time>
      </trkpt>
      <trkpt lat="45.65854" lon="3.60047">
        <ele>688</ele>
        <time>2017-11-30T23:23:53Z</time>
      </trkpt>
      <trkpt lat="45.65815" lon="3.60094">
        <ele>694</ele>
        <time>2017-11-30T23:25:53Z</time>
      </trkpt>
      <trkpt lat="45.65786" lon="3.60139">
        <ele>699</ele>
        <time>2017-11-30T23:27:53Z</time>
      </trkpt>
      <trkpt lat="45.65758" lon="3.60255">
        <ele>709</ele>
        <time>2017-11-30T23:29:53Z</time>
      </trkpt>
      <trkpt lat="45.65759" lon="3.60278">
        <ele>710</ele>
        <time>2017-11-30T23:31:53Z</time>
      </trkpt>
      <trkpt lat="45.65739" lon="3.60301">
        <ele>712</ele>
        <time>2017-11-30T23:33:53Z</time>
      </trkpt>
      <trkpt lat="45.65724" lon="3.60329">
        <ele>713</ele>
        <time>2017-11-30T23:35:53Z</time>
      </trkpt>
      <trkpt lat="45.65698" lon="3.60318">
        <ele>712</ele>
        <time>2017-11-30T23:37:53Z</time>
      </trkpt>
      <trkpt lat="45.65662" lon="3.60322">
        <ele>711</ele>
        <time>2017-11-30T23:39:53Z</time>
      </trkpt>
      <trkpt lat="45.655" lon="3.60313">
        <ele>718</ele>
        <time>2017-11-30T23:41:53Z</time>
      </trkpt>
      <trkpt lat="45.6545" lon="3.60309">
        <ele>719</ele>
        <time>2017-11-30T23:43:53Z</time>
      </trkpt>
      <trkpt lat="45.65392" lon="3.60326">
        <ele>721</ele>
        <time>2017-11-30T23:45:53Z</time>
      </trkpt>
      <trkpt lat="45.65303" lon="3.60309">
        <ele>724</ele>
        <time>2017-11-30T23:47:53Z</time>
      </trkpt>
      <trkpt lat="45.65266" lon="3.60245">
        <ele>726</ele>
        <time>2017-11-30T23:49:53Z</time>
      </trkpt>
      <trkpt lat="45.652" lon="3.60197">
        <ele>730</ele>
        <time>2017-11-30T23:51:53Z</time>
      </trkpt>
      <trkpt lat="45.65087" lon="3.60191">
        <ele>734</ele>
        <time>2017-11-30T23:53:53Z</time>
      </trkpt>
      <trkpt lat="45.64981" lon="3.60167">
        <ele>738</ele>
        <time>2017-11-30T23:55:53Z</time>
      </trkpt>
      <trkpt lat="45.64856" lon="3.60219">
        <ele>737</ele>
        <time>2017-11-30T23:57:53Z</time>
      </trkpt>
      <trkpt lat="45.64768" lon="3.60253">
        <ele>740</ele>
        <time>2017-11-30T23:59:53Z</time>
      </trkpt>
      <trkpt lat="45.64697" lon="3.60212">
        <ele>751</ele>
        <time>2017-12-01T00:01:53Z</time>
      </trkpt>
      <trkpt lat="45.64657" lon="3.60204">
        <ele>761</ele>
        <time>2017-12-01T00:03:53Z</time>
      </trkpt>
      <trkpt lat="45.64651" lon="3.60142">
        <ele>764</ele>
        <time>2017-12-01T00:05:53Z</time>
      </trkpt>
      <trkpt lat="45.64661" lon="3.6003">
        <ele>760</ele>
        <time>2017-12-01T00:07:53Z</time>
      </trkpt>
      <trkpt lat="45.64669" lon="3.59876">
        <ele>764</ele>
        <time>2017-12-01T00:09:53Z</time>
      </trkpt>
      <trkpt lat="45.64628" lon="3.59901">
        <ele>770</ele>
        <time>2017-12-01T00:11:53Z</time>
      </trkpt>
      <trkpt lat="45.64582" lon="3.59773">
        <ele>772</ele>
        <time>2017-12-01T00:13:53Z</time>
      </trkpt>
      <trkpt lat="45.64505" lon="3.59852">
        <ele>785</ele>
        <time>2017-12-01T00:15:53Z</time>
      </trkpt>
      <trkpt lat="45.64297" lon="3.59976">
        <ele>810</ele>
        <time>2017-12-01T00:17:53Z</time>
      </trkpt>
      <trkpt lat="45.64231" lon="3.60006">
        <ele>817</ele>
        <time>2017-12-01T00:19:53Z</time>
      </trkpt>
      <trkpt lat="45.64186" lon="3.59833">
        <ele>807</ele>
        <time>2017-12-01T00:21:53Z</time>
      </trkpt>
      <trkpt lat="45.64157" lon="3.59745">
        <ele>806</ele>
        <time>2017-12-01T00:23:53Z</time>
      </trkpt>
      <trkpt lat="45.64117" lon="3.59661">
        <ele>804</ele>
        <time>2017-12-01T00:25:53Z</time>
      </trkpt>
      <trkpt lat="45.64103" lon="3.59586">
        <ele>799</ele>
        <time>2017-12-01T00:27:53Z</time>
      </trkpt>
      <trkpt lat="45.64015" lon="3.59573">
        <ele>787</ele>
        <time>2017-12-01T00:29:53Z</time>
      </trkpt>
      <trkpt lat="45.64004" lon="3.59635">
        <ele>790</ele>
        <time>2017-12-01T00:31:53Z</time>
      </trkpt>
      <trkpt lat="45.63974" lon="3.59742">
        <ele>785</ele>
        <time>2017-12-01T00:33:53Z</time>
      </trkpt>
      <trkpt lat="45.63938" lon="3.59961">
        <ele>800</ele>
        <time>2017-12-01T00:35:53Z</time>
      </trkpt>
      <trkpt lat="45.63871" lon="3.60094">
        <ele>813</ele>
        <time>2017-12-01T00:37:53Z</time>
      </trkpt>
      <trkpt lat="45.63818" lon="3.60114">
        <ele>817</ele>
        <time>2017-12-01T00:39:53Z</time>
      </trkpt>
      <trkpt lat="45.6371" lon="3.60245">
        <ele>845</ele>
        <time>2017-12-01T00:41:53Z</time>
      </trkpt>
      <trkpt lat="45.63766" lon="3.603">
        <ele>844</ele>
        <time>2017-12-01T00:43:53Z</time>
      </trkpt>
      <trkpt lat="45.63784" lon="3.6035">
        <ele>845</ele>
        <time>2017-12-01T00:45:53Z</time>
      </trkpt>
      <trkpt lat="45.63705" lon="3.6033">
        <ele>854</ele>
        <time>2017-12-01T00:47:53Z</time>
      </trkpt>
      <trkpt lat="45.63671" lon="3.60309">
        <ele>857</ele>
        <time>2017-12-01T00:49:53Z</time>
      </trkpt>
      <trkpt lat="45.63633" lon="3.60345">
        <ele>862</ele>
        <time>2017-12-01T00:51:53Z</time>
      </trkpt>
      <trkpt lat="45.63542" lon="3.60399">
        <ele>868</ele>
        <time>2017-12-01T00:53:53Z</time>
      </trkpt>
      <trkpt lat="45.63506" lon="3.60457">
        <ele>866</ele>
        <time>2017-12-01T00:55:53Z</time>
      </trkpt>
      <trkpt lat="45.63459" lon="3.60485">
        <ele>866</ele>
        <time>2017-12-01T00:57:53Z</time>
      </trkpt>
      <trkpt lat="45.63257" lon="3.60384">
        <ele>884</ele>
        <time>2017-12-01T00:59:53Z</time>
      </trkpt>
      <trkpt lat="45.63192" lon="3.60326">
        <ele>890</ele>
        <time>2017-12-01T01:01:53Z</time>
      </trkpt>
      <trkpt lat="45.63132" lon="3.60294">
        <ele>894</ele>
        <time>2017-12-01T01:03:53Z</time>
      </trkpt>
      <trkpt lat="45.63017" lon="3.6027">
        <ele>902</ele>
        <time>2017-12-01T01:05:53Z</time>
      </trkpt>
      <trkpt lat="45.62937" lon="3.60247">
        <ele>906</ele>
        <time>2017-12-01T01:07:53Z</time>
      </trkpt>
      <trkpt lat="45.62891" lon="3.6024">
        <ele>907</ele>
        <time>2017-12-01T01:09:53Z</time>
      </trkpt>
      <trkpt lat="45.62844" lon="3.60277">
        <ele>909</ele>
        <time>2017-12-01T01:11:53Z</time>
      </trkpt>
      <trkpt lat="45.62792" lon="3.60287">
        <ele>911</ele>
        <time>2017-12-01T01:13:53Z</time>
      </trkpt>
      <trkpt lat="45.62753" lon="3.60343">
        <ele>916</ele>
        <time>2017-12-01T01:15:53Z</time>
      </trkpt>
      <trkpt lat="45.62735" lon="3.6041">
        <ele>923</ele>
        <time>2017-12-01T01:17:53Z</time>
      </trkpt>
      <trkpt lat="45.62676" lon="3.60433">
        <ele>931</ele>
        <time>2017-12-01T01:19:53Z</time>
      </trkpt>
      <trkpt lat="45.62574" lon="3.60436">
        <ele>931</ele>
        <time>2017-12-01T01:21:53Z</time>
      </trkpt>
      <trkpt lat="45.62448" lon="3.60412">
        <ele>932</ele>
        <time>2017-12-01T01:23:53Z</time>
      </trkpt>
      <trkpt lat="45.6233" lon="3.60397">
        <ele>934</ele>
        <time>2017-12-01T01:25:53Z</time>
      </trkpt>
      <trkpt lat="45.62251" lon="3.60356">
        <ele>944</ele>
        <time>2017-12-01T01:27:53Z</time>
      </trkpt>
      <trkpt lat="45.62175" lon="3.60281">
        <ele>939</ele>
        <time>2017-12-01T01:29:53Z</time>
      </trkpt>
      <trkpt lat="45.62134" lon="3.60257">
        <ele>939</ele>
        <time>2017-12-01T01:31:53Z</time>
      </trkpt>
      <trkpt lat="45.62094" lon="3.6026">
        <ele>937</ele>
        <time>2017-12-01T01:33:53Z</time>
      </trkpt>
      <trkpt lat="45.62041" lon="3.60159">
        <ele>950</ele>
        <time>2017-12-01T01:35:53Z</time>
      </trkpt>
      <trkpt lat="45.61908" lon="3.60051">
        <ele>966</ele>
        <time>2017-12-01T01:37:53Z</time>
      </trkpt>
      <trkpt lat="45.61842" lon="3.60021">
        <ele>971</ele>
        <time>2017-12-01T01:39:53Z</time>
      </trkpt>
      <trkpt lat="45.61732" lon="3.59921">
        <ele>989</ele>
        <time>2017-12-01T01:41:53Z</time>
      </trkpt>
      <trkpt lat="45.61632" lon="3.59845">
        <ele>996</ele>
        <time>2017-12-01T01:43:53Z</time>
      </trkpt>
      <trkpt lat="45.61555" lon="3.59753">
        <ele>995</ele>
        <time>2017-12-01T01:45:53Z</time>
      </trkpt>
      <trkpt lat="45.61515" lon="3.59644">
        <ele>990</ele>
        <time>2017-12-01T01:47:53Z</time>
      </trkpt>
      <trkpt lat="45.61468" lon="3.59543">
        <ele>992</ele>
        <time>2017-12-01T01:49:53Z</time>
      </trkpt>
      <trkpt lat="45.61408" lon="3.59401">
        <ele>1000</ele>
        <time>2017-12-01T01:51:53Z</time>
      </trkpt>
      <trkpt lat="45.6125" lon="3.59326">
        <ele>1008</ele>
        <time>2017-12-01T01:53:53Z</time>
      </trkpt>
      <trkpt lat="45.61138" lon="3.59307">
        <ele>1002</ele>
        <time>2017-12-01T01:55:53Z</time>
      </trkpt>
      <trkpt lat="45.61043" lon="3.59262">
        <ele>1000</ele>
        <time>2017-12-01T01:57:53Z</time>
      </trkpt>
      <trkpt lat="45.60919" lon="3.59255">
        <ele>997</ele>
        <time>2017-12-01T01:59:53Z</time>
      </trkpt>
      <trkpt lat="45.60859" lon="3.59197">
        <ele>999</ele>
        <time>2017-12-01T02:01:53Z</time>
      </trkpt>
      <trkpt lat="45.60779" lon="3.59174">
        <ele>999</ele>
        <time>2017-12-01T02:03:53Z</time>
      </trkpt>
      <trkpt lat="45.60655" lon="3.59107">
        <ele>996</ele>
        <time>2017-12-01T02:05:53Z</time>
      </trkpt>
      <trkpt lat="45.60524" lon="3.59032">
        <ele>1009</ele>
        <time>2017-12-01T02:07:53Z</time>
      </trkpt>
      <trkpt lat="45.60462" lon="3.58983">
        <ele>1011</ele>
        <time>2017-12-01T02:09:53Z</time>
      </trkpt>
      <trkpt lat="45.60372" lon="3.58964">
        <ele>1012</ele>
        <time>2017-12-01T02:11:53Z</time>
      </trkpt>
      <trkpt lat="45.60278" lon="3.58908">
        <ele>1011</ele>
        <time>2017-12-01T02:13:53Z</time>
      </trkpt>
      <trkpt lat="45.60177" lon="3.58809">
        <ele>1019</ele>
        <time>2017-12-01T02:15:53Z</time>
      </trkpt>
      <trkpt lat="45.60101" lon="3.58734">
        <ele>1020</ele>
        <time>2017-12-01T02:17:53Z</time>
      </trkpt>
      <trkpt lat="45.60024" lon="3.58547">
        <ele>1014</ele>
        <time>2017-12-01T02:19:53Z</time>
      </trkpt>
      <trkpt lat="45.59934" lon="3.58414">
        <ele>1012</ele>
        <time>2017-12-01T02:21:53Z</time>
      </trkpt>
      <trkpt lat="45.59808" lon="3.58288">
        <ele>1003</ele>
        <time>2017-12-01T02:23:53Z</time>
      </trkpt>
      <trkpt lat="45.59748" lon="3.58238">
        <ele>999</ele>
        <time>2017-12-01T02:25:53Z</time>
      </trkpt>
      <trkpt lat="45.59667" lon="3.58132">
        <ele>1003</ele>
        <time>2017-12-01T02:27:53Z</time>
      </trkpt>
      <trkpt lat="45.59606" lon="3.5804">
        <ele>1010</ele>
        <time>2017-12-01T02:29:53Z</time>
      </trkpt>
      <trkpt lat="45.59567" lon="3.58008">
        <ele>1012</ele>
        <time>2017-12-01T02:31:53Z</time>
      </trkpt>
      <trkpt lat="45.59512" lon="3.57946">
        <ele>1011</ele>
        <time>2017-12-01T02:33:53Z</time>
      </trkpt>
      <trkpt lat="45.59433" lon="3.57835">
        <ele>1012</ele>
        <time>2017-12-01T02:35:53Z</time>
      </trkpt>
      <trkpt lat="45.59369" lon="3.57722">
        <ele>1030</ele>
        <time>2017-12-01T02:37:53Z</time>
      </trkpt>
      <trkpt lat="45.59341" lon="3.57657">
        <ele>1036</ele>
        <time>2017-12-01T02:39:53Z</time>
      </trkpt>
      <trkpt lat="45.5931" lon="3.5761">
        <ele>1036</ele>
        <time>2017-12-01T02:41:53Z</time>
      </trkpt>
      <trkpt lat="45.59261" lon="3.57574">
        <ele>1034</ele>
        <time>2017-12-01T02:43:53Z</time>
      </trkpt>
      <trkpt lat="45.59246" lon="3.57539">
        <ele>1035</ele>
        <time>2017-12-01T02:45:53Z</time>
      </trkpt>
      <trkpt lat="45.59192" lon="3.57485">
        <ele>1037</ele>
        <time>2017-12-01T02:47:53Z</time>
      </trkpt>
      <trkpt lat="45.59089" lon="3.57484">
        <ele>1040</ele>
        <time>2017-12-01T02:49:53Z</time>
      </trkpt>
      <trkpt lat="45.59061" lon="3.57452">
        <ele>1040</ele>
        <time>2017-12-01T02:51:53Z</time>
      </trkpt>
      <trkpt lat="45.5897" lon="3.57361">
        <ele>1039</ele>
        <time>2017-12-01T02:53:53Z</time>
      </trkpt>
      <trkpt lat="45.58878" lon="3.57369">
        <ele>1039</ele>
        <time>2017-12-01T02:55:53Z</time>
      </trkpt>
      <trkpt lat="45.5865" lon="3.57341">
        <ele>1042</ele>
        <time>2017-12-01T02:57:53Z</time>
      </trkpt>
      <trkpt lat="45.58581" lon="3.57283">
        <ele>1039</ele>
        <time>2017-12-01T02:59:53Z</time>
      </trkpt>
      <trkpt lat="45.58571" lon="3.57193">
        <ele>1039</ele>
        <time>2017-12-01T03:01:53Z</time>
      </trkpt>
      <trkpt lat="45.58533" lon="3.57155">
        <ele>1035</ele>
        <time>2017-12-01T03:03:53Z</time>
      </trkpt>
      <trkpt lat="45.58485" lon="3.57163">
        <ele>1031</ele>
        <time>2017-12-01T03:05:53Z</time>
      </trkpt>
      <trkpt lat="45.5836" lon="3.57099">
        <ele>1022</ele>
        <time>2017-12-01T03:07:53Z</time>
      </trkpt>
      <trkpt lat="45.58297" lon="3.57022">
        <ele>1020</ele>
        <time>2017-12-01T03:09:53Z</time>
      </trkpt>
      <trkpt lat="45.58309" lon="3.56942">
        <ele>1015</ele>
        <time>2017-12-01T03:11:53Z</time>
      </trkpt>
      <trkpt lat="45.58248" lon="3.5682">
        <ele>1013</ele>
        <time>2017-12-01T03:13:53Z</time>
      </trkpt>
      <trkpt lat="45.58188" lon="3.56758">
        <ele>1009</ele>
        <time>2017-12-01T03:15:53Z</time>
      </trkpt>
      <trkpt lat="45.58119" lon="3.56738">
        <ele>1010</ele>
        <time>2017-12-01T03:17:53Z</time>
      </trkpt>
      <trkpt lat="45.5795" lon="3.56547">
        <ele>997</ele>
        <time>2017-12-01T03:19:53Z</time>
      </trkpt>
      <trkpt lat="45.57775" lon="3.56348">
        <ele>983</ele>
        <time>2017-12-01T03:21:53Z</time>
      </trkpt>
      <trkpt lat="45.5776" lon="3.56309">
        <ele>979</ele>
        <time>2017-12-01T03:23:53Z</time>
      </trkpt>
      <trkpt lat="45.57594" lon="3.56159">
        <ele>953</ele>
        <time>2017-12-01T03:25:53Z</time>
      </trkpt>
      <trkpt lat="45.57533" lon="3.5614">
        <ele>949</ele>
        <time>2017-12-01T03:27:53Z</time>
      </trkpt>
      <trkpt lat="45.57497" lon="3.56105">
        <ele>945</ele>
        <time>2017-12-01T03:29:53Z</time>
      </trkpt>
      <trkpt lat="45.57312" lon="3.56024">
        <ele>959</ele>
        <time>2017-12-01T03:31:53Z</time>
      </trkpt>
      <trkpt lat="45.57256" lon="3.56039">
        <ele>962</ele>
        <time>2017-12-01T03:33:53Z</time>
      </trkpt>
      <trkpt lat="45.57141" lon="3.56081">
        <ele>965</ele>
        <time>2017-12-01T03:35:53Z</time>
      </trkpt>
      <trkpt lat="45.57103" lon="3.56119">
        <ele>967</ele>
        <time>2017-12-01T03:37:53Z</time>
      </trkpt>
      <trkpt lat="45.57085" lon="3.56158">
        <ele>972</ele>
        <time>2017-12-01T03:39:53Z</time>
      </trkpt>
      <trkpt lat="45.57072" lon="3.56171">
        <ele>974</ele>
        <time>2017-12-01T03:41:53Z</time>
      </trkpt>
      <trkpt lat="45.57031" lon="3.56188">
        <ele>977</ele>
        <time>2017-12-01T03:43:53Z</time>
      </trkpt>
      <trkpt lat="45.56979" lon="3.56218">
        <ele>981</ele>
        <time>2017-12-01T03:45:53Z</time>
      </trkpt>
      <trkpt lat="45.56948" lon="3.56253">
        <ele>982</ele>
        <time>2017-12-01T03:47:53Z</time>
      </trkpt>
      <trkpt lat="45.5696" lon="3.5629">
        <ele>986</ele>
        <time>2017-12-01T03:49:53Z</time>
      </trkpt>
      <trkpt lat="45.56948" lon="3.56308">
        <ele>986</ele>
        <time>2017-12-01T03:51:53Z</time>
      </trkpt>
      <trkpt lat="45.56943" lon="3.56336">
        <ele>987</ele>
        <time>2017-12-01T03:53:53Z</time>
      </trkpt>
      <trkpt lat="45.56923" lon="3.56353">
        <ele>986</ele>
        <time>2017-12-01T03:55:53Z</time>
      </trkpt>
      <trkpt lat="45.56898" lon="3.56349">
        <ele>985</ele>
        <time>2017-12-01T03:57:53Z</time>
      </trkpt>
      <trkpt lat="45.56845" lon="3.56396">
        <ele>991</ele>
        <time>2017-12-01T03:59:53Z</time>
      </trkpt>
      <trkpt lat="45.5677" lon="3.56476">
        <ele>1005</ele>
        <time>2017-12-01T04:01:53Z</time>
      </trkpt>
      <trkpt lat="45.56727" lon="3.56552">
        <ele>1015</ele>
        <time>2017-12-01T04:03:53Z</time>
      </trkpt>
      <trkpt lat="45.56632" lon="3.56625">
        <ele>1028</ele>
        <time>2017-12-01T04:05:53Z</time>
      </trkpt>
      <trkpt lat="45.56543" lon="3.56665">
        <ele>1039</ele>
        <time>2017-12-01T04:07:53Z</time>
      </trkpt>
      <trkpt lat="45.56478" lon="3.56706">
        <ele>1047</ele>
        <time>2017-12-01T04:09:53Z</time>
      </trkpt>
      <trkpt lat="45.56414" lon="3.56792">
        <ele>1056</ele>
        <time>2017-12-01T04:11:53Z</time>
      </trkpt>
      <trkpt lat="45.56322" lon="3.56927">
        <ele>1060</ele>
        <time>2017-12-01T04:13:53Z</time>
      </trkpt>
      <trkpt lat="45.56297" lon="3.56987">
        <ele>1063</ele>
        <time>2017-12-01T04:15:53Z</time>
      </trkpt>
      <trkpt lat="45.56283" lon="3.5694">
        <ele>1061</ele>
        <time>2017-12-01T04:17:53Z</time>
      </trkpt>
      <trkpt lat="45.56173" lon="3.56923">
        <ele>1060</ele>
        <time>2017-12-01T04:19:53Z</time>
      </trkpt>
      <trkpt lat="45.5604" lon="3.56932">
        <ele>1060</ele>
        <time>2017-12-01T04:21:53Z</time>
      </trkpt>
      <trkpt lat="45.55942" lon="3.56914">
        <ele>1061</ele>
        <time>2017-12-01T04:23:53Z</time>
      </trkpt>
      <trkpt lat="45.55811" lon="3.56899">
        <ele>1064</ele>
        <time>2017-12-01T04:25:53Z</time>
      </trkpt>
      <trkpt lat="45.55735" lon="3.56908">
        <ele>1065</ele>
        <time>2017-12-01T04:27:53Z</time>
      </trkpt>
      <trkpt lat="45.55587" lon="3.56768">
        <ele>1079</ele>
        <time>2017-12-01T04:29:53Z</time>
      </trkpt>
      <trkpt lat="45.55547" lon="3.56698">
        <ele>1081</ele>
        <time>2017-12-01T04:31:53Z</time>
      </trkpt>
      <trkpt lat="45.55496" lon="3.56573">
        <ele>1083</ele>
        <time>2017-12-01T04:33:53Z</time>
      </trkpt>
      <trkpt lat="45.55431" lon="3.56451">
        <ele>1085</ele>
        <time>2017-12-01T04:35:53Z</time>
      </trkpt>
      <trkpt lat="45.5538" lon="3.56417">
        <ele>1086</ele>
        <time>2017-12-01T04:37:53Z</time>
      </trkpt>
      <trkpt lat="45.55356" lon="3.5647">
        <ele>1086</ele>
        <time>2017-12-01T04:39:53Z</time>
      </trkpt>
      <trkpt lat="45.55303" lon="3.56511">
        <ele>1086</ele>
        <time>2017-12-01T04:41:53Z</time>
      </trkpt>
      <trkpt lat="45.55219" lon="3.5658">
        <ele>1081</ele>
        <time>2017-12-01T04:43:53Z</time>
      </trkpt>
      <trkpt lat="45.55138" lon="3.56577">
        <ele>1076</ele>
        <time>2017-12-01T04:45:53Z</time>
      </trkpt>
      <trkpt lat="45.5508" lon="3.56511">
        <ele>1077</ele>
        <time>2017-12-01T04:47:53Z</time>
      </trkpt>
      <trkpt lat="45.54961" lon="3.56509">
        <ele>1073</ele>
        <time>2017-12-01T04:49:53Z</time>
      </trkpt>
      <trkpt lat="45.54887" lon="3.56562">
        <ele>1065</ele>
        <time>2017-12-01T04:51:53Z</time>
      </trkpt>
      <trkpt lat="45.54799" lon="3.56584">
        <ele>1059</ele>
        <time>2017-12-01T04:53:53Z</time>
      </trkpt>
      <trkpt lat="45.54645" lon="3.56556">
        <ele>1057</ele>
        <time>2017-12-01T04:55:53Z</time>
      </trkpt>
      <trkpt lat="45.54585" lon="3.56502">
        <ele>1056</ele>
        <time>2017-12-01T04:57:53Z</time>
      </trkpt>
      <trkpt lat="45.54489" lon="3.56455">
        <ele>1050</ele>
        <time>2017-12-01T04:59:53Z</time>
      </trkpt>
      <trkpt lat="45.54417" lon="3.56509">
        <ele>1043</ele>
        <time>2017-12-01T05:01:53Z</time>
      </trkpt>
      <trkpt lat="45.54273" lon="3.56608">
        <ele>1044</ele>
        <time>2017-12-01T05:03:53Z</time>
      </trkpt>
      <trkpt lat="45.54164" lon="3.56717">
        <ele>1046</ele>
        <time>2017-12-01T05:05:53Z</time>
      </trkpt>
      <trkpt lat="45.54143" lon="3.56753">
        <ele>1045</ele>
        <time>2017-12-01T05:07:53Z</time>
      </trkpt>
      <trkpt lat="45.54064" lon="3.56777">
        <ele>1049</ele>
        <time>2017-12-01T05:09:53Z</time>
      </trkpt>
      <trkpt lat="45.54028" lon="3.56863">
        <ele>1044</ele>
        <time>2017-12-01T05:11:53Z</time>
      </trkpt>
      <trkpt lat="45.53918" lon="3.57009">
        <ele>1045</ele>
        <time>2017-12-01T05:13:53Z</time>
      </trkpt>
      <trkpt lat="45.53813" lon="3.57138">
        <ele>1040</ele>
        <time>2017-12-01T05:15:53Z</time>
      </trkpt>
      <trkpt lat="45.53713" lon="3.5721">
        <ele>1038</ele>
        <time>2017-12-01T05:17:53Z</time>
      </trkpt>
      <trkpt lat="45.53632" lon="3.5723">
        <ele>1036</ele>
        <time>2017-12-01T05:19:53Z</time>
      </trkpt>
      <trkpt lat="45.53541" lon="3.57324">
        <ele>1034</ele>
        <time>2017-12-01T05:21:53Z</time>
      </trkpt>
      <trkpt lat="45.53464" lon="3.57416">
        <ele>1035</ele>
        <time>2017-12-01T05:23:53Z</time>
      </trkpt>
      <trkpt lat="45.53404" lon="3.57444">
        <ele>1037</ele>
        <time>2017-12-01T05:25:53Z</time>
      </trkpt>
      <trkpt lat="45.53296" lon="3.57434">
        <ele>1038</ele>
        <time>2017-12-01T05:27:53Z</time>
      </trkpt>
      <trkpt lat="45.53157" lon="3.57464">
        <ele>1039</ele>
        <time>2017-12-01T05:29:53Z</time>
      </trkpt>
      <trkpt lat="45.53051" lon="3.57451">
        <ele>1043</ele>
        <time>2017-12-01T05:31:53Z</time>
      </trkpt>
      <trkpt lat="45.53009" lon="3.57378">
        <ele>1045</ele>
        <time>2017-12-01T05:33:53Z</time>
      </trkpt>
      <trkpt lat="45.53021" lon="3.57286">
        <ele>1049</ele>
        <time>2017-12-01T05:35:53Z</time>
      </trkpt>
      <trkpt lat="45.53015" lon="3.57204">
        <ele>1052</ele>
        <time>2017-12-01T05:37:53Z</time>
      </trkpt>
      <trkpt lat="45.53001" lon="3.57035">
        <ele>1067</ele>
        <time>2017-12-01T05:39:53Z</time>
      </trkpt>
      <trkpt lat="45.52966" lon="3.56968">
        <ele>1075</ele>
        <time>2017-12-01T05:41:53Z</time>
      </trkpt>
      <trkpt lat="45.52897" lon="3.56936">
        <ele>1079</ele>
        <time>2017-12-01T05:43:53Z</time>
      </trkpt>
      <trkpt lat="45.52855" lon="3.56962">
        <ele>1077</ele>
        <time>2017-12-01T05:45:53Z</time>
      </trkpt>
      <trkpt lat="45.52814" lon="3.57012">
        <ele>1072</ele>
        <time>2017-12-01T05:47:53Z</time>
      </trkpt>
      <trkpt lat="45.52803" lon="3.5706">
        <ele>1070</ele>
        <time>2017-12-01T05:49:53Z</time>
      </trkpt>
      <trkpt lat="45.5278" lon="3.57141">
        <ele>1064</ele>
        <time>2017-12-01T05:51:53Z</time>
      </trkpt>
      <trkpt lat="45.52763" lon="3.5722">
        <ele>1056</ele>
        <time>2017-12-01T05:53:53Z</time>
      </trkpt>
      <trkpt lat="45.52738" lon="3.57252">
        <ele>1052</ele>
        <time>2017-12-01T05:55:53Z</time>
      </trkpt>
      <trkpt lat="45.52736" lon="3.57282">
        <ele>1050</ele>
        <time>2017-12-01T05:57:53Z</time>
      </trkpt>
      <trkpt lat="45.52745" lon="3.57308">
        <ele>1049</ele>
        <time>2017-12-01T05:59:53Z</time>
      </trkpt>
      <trkpt lat="45.52754" lon="3.57377">
        <ele>1045</ele>
        <time>2017-12-01T06:01:53Z</time>
      </trkpt>
      <trkpt lat="45.52795" lon="3.57464">
        <ele>1041</ele>
        <time>2017-12-01T06:03:53Z</time>
      </trkpt>
      <trkpt lat="45.52803" lon="3.57523">
        <ele>1040</ele>
        <time>2017-12-01T06:05:53Z</time>
      </trkpt>
      <trkpt lat="45.52806" lon="3.57578">
        <ele>1041</ele>
        <time>2017-12-01T06:07:53Z</time>
      </trkpt>
      <trkpt lat="45.52797" lon="3.57642">
        <ele>1041</ele>
        <time>2017-12-01T06:09:53Z</time>
      </trkpt>
      <trkpt lat="45.52763" lon="3.57752">
        <ele>1039</ele>
        <time>2017-12-01T06:11:53Z</time>
      </trkpt>
      <trkpt lat="45.52761" lon="3.57786">
        <ele>1037</ele>
        <time>2017-12-01T06:13:53Z</time>
      </trkpt>
      <trkpt lat="45.52703" lon="3.5783">
        <ele>1032</ele>
        <time>2017-12-01T06:15:53Z</time>
      </trkpt>
      <trkpt lat="45.52664" lon="3.57832">
        <ele>1030</ele>
        <time>2017-12-01T06:17:53Z</time>
      </trkpt>
      <trkpt lat="45.52571" lon="3.5783">
        <ele>1020</ele>
        <time>2017-12-01T06:19:53Z</time>
      </trkpt>
      <trkpt lat="45.52525" lon="3.57832">
        <ele>1022</ele>
        <time>2017-12-01T06:21:53Z</time>
      </trkpt>
      <trkpt lat="45.52465" lon="3.57793">
        <ele>1027</ele>
        <time>2017-12-01T06:23:53Z</time>
      </trkpt>
      <trkpt lat="45.52446" lon="3.57834">
        <ele>1028</ele>
        <time>2017-12-01T06:25:53Z</time>
      </trkpt>
      <trkpt lat="45.52424" lon="3.57892">
        <ele>1030</ele>
        <time>2017-12-01T06:27:53Z</time>
      </trkpt>
      <trkpt lat="45.52388" lon="3.57939">
        <ele>1033</ele>
        <time>2017-12-01T06:29:53Z</time>
      </trkpt>
      <trkpt lat="45.52336" lon="3.57998">
        <ele>1034</ele>
        <time>2017-12-01T06:31:53Z</time>
      </trkpt>
      <trkpt lat="45.52273" lon="3.58024">
        <ele>1029</ele>
        <time>2017-12-01T06:33:53Z</time>
      </trkpt>
      <trkpt lat="45.52216" lon="3.58013">
        <ele>1027</ele>
        <time>2017-12-01T06:35:53Z</time>
      </trkpt>
      <trkpt lat="45.52167" lon="3.58026">
        <ele>1023</ele>
        <time>2017-12-01T06:37:53Z</time>
      </trkpt>
      <trkpt lat="45.52111" lon="3.58075">
        <ele>1025</ele>
        <time>2017-12-01T06:39:53Z</time>
      </trkpt>
      <trkpt lat="45.52112" lon="3.58117">
        <ele>1023</ele>
        <time>2017-12-01T06:41:53Z</time>
      </trkpt>
      <trkpt lat="45.52098" lon="3.58147">
        <ele>1023</ele>
        <time>2017-12-01T06:43:53Z</time>
      </trkpt>
      <trkpt lat="45.52087" lon="3.582">
        <ele>1022</ele>
        <time>2017-12-01T06:45:53Z</time>
      </trkpt>
      <trkpt lat="45.52063" lon="3.58245">
        <ele>1022</ele>
        <time>2017-12-01T06:47:53Z</time>
      </trkpt>
      <trkpt lat="45.51976" lon="3.58393">
        <ele>1018</ele>
        <time>2017-12-01T06:49:53Z</time>
      </trkpt>
      <trkpt lat="45.51895" lon="3.58588">
        <ele>1012</ele>
        <time>2017-12-01T06:51:53Z</time>
      </trkpt>
      <trkpt lat="45.51824" lon="3.5871">
        <ele>1011</ele>
        <time>2017-12-01T06:53:53Z</time>
      </trkpt>
      <trkpt lat="45.51777" lon="3.58723">
        <ele>1009</ele>
        <time>2017-12-01T06:55:53Z</time>
      </trkpt>
      <trkpt lat="45.5174" lon="3.58775">
        <ele>1010</ele>
        <time>2017-12-01T06:57:53Z</time>
      </trkpt>
      <trkpt lat="45.51702" lon="3.58766">
        <ele>1006</ele>
        <time>2017-12-01T06:59:53Z</time>
      </trkpt>
      <trkpt lat="45.51637" lon="3.5879">
        <ele>1000</ele>
        <time>2017-12-01T07:01:53Z</time>
      </trkpt>
      <trkpt lat="45.51516" lon="3.58822">
        <ele>994</ele>
        <time>2017-12-01T07:03:53Z</time>
      </trkpt>
      <trkpt lat="45.51311" lon="3.5885">
        <ele>988</ele>
        <time>2017-12-01T07:05:53Z</time>
      </trkpt>
      <trkpt lat="45.5117" lon="3.58843">
        <ele>989</ele>
        <time>2017-12-01T07:07:53Z</time>
      </trkpt>
      <trkpt lat="45.51131" lon="3.58901">
        <ele>991</ele>
        <time>2017-12-01T07:09:53Z</time>
      </trkpt>
      <trkpt lat="45.51108" lon="3.58983">
        <ele>990</ele>
        <time>2017-12-01T07:11:53Z</time>
      </trkpt>
      <trkpt lat="45.51045" lon="3.59026">
        <ele>988</ele>
        <time>2017-12-01T07:13:53Z</time>
      </trkpt>
      <trkpt lat="45.50968" lon="3.59013">
        <ele>985</ele>
        <time>2017-12-01T07:15:53Z</time>
      </trkpt>
      <trkpt lat="45.50923" lon="3.58961">
        <ele>987</ele>
        <time>2017-12-01T07:17:53Z</time>
      </trkpt>
      <trkpt lat="45.50883" lon="3.58957">
        <ele>985</ele>
        <time>2017-12-01T07:19:53Z</time>
      </trkpt>
      <trkpt lat="45.50818" lon="3.58949">
        <ele>980</ele>
        <time>2017-12-01T07:21:53Z</time>
      </trkpt>
      <trkpt lat="45.50758" lon="3.58951">
        <ele>974</ele>
        <time>2017-12-01T07:23:53Z</time>
      </trkpt>
      <trkpt lat="45.50681" lon="3.58994">
        <ele>977</ele>
        <time>2017-12-01T07:25:53Z</time>
      </trkpt>
      <trkpt lat="45.50639" lon="3.59004">
        <ele>982</ele>
        <time>2017-12-01T07:27:53Z</time>
      </trkpt>
      <trkpt lat="45.50484" lon="3.59077">
        <ele>1000</ele>
        <time>2017-12-01T07:29:53Z</time>
      </trkpt>
      <trkpt lat="45.50359" lon="3.59142">
        <ele>1000</ele>
        <time>2017-12-01T07:31:53Z</time>
      </trkpt>
      <trkpt lat="45.50231" lon="3.5914">
        <ele>996</ele>
        <time>2017-12-01T07:33:53Z</time>
      </trkpt>
      <trkpt lat="45.50149" lon="3.59161">
        <ele>994</ele>
        <time>2017-12-01T07:35:53Z</time>
      </trkpt>
      <trkpt lat="45.50105" lon="3.59236">
        <ele>997</ele>
        <time>2017-12-01T07:37:53Z</time>
      </trkpt>
      <trkpt lat="45.50052" lon="3.59305">
        <ele>998</ele>
        <time>2017-12-01T07:39:53Z</time>
      </trkpt>
      <trkpt lat="45.50043" lon="3.59361">
        <ele>998</ele>
        <time>2017-12-01T07:41:53Z</time>
      </trkpt>
      <trkpt lat="45.4997" lon="3.59433">
        <ele>1004</ele>
        <time>2017-12-01T07:43:53Z</time>
      </trkpt>
      <trkpt lat="45.49911" lon="3.59461">
        <ele>1006</ele>
        <time>2017-12-01T07:45:53Z</time>
      </trkpt>
      <trkpt lat="45.4987" lon="3.59427">
        <ele>1010</ele>
        <time>2017-12-01T07:47:53Z</time>
      </trkpt>
      <trkpt lat="45.49815" lon="3.59393">
        <ele>1016</ele>
        <time>2017-12-01T07:49:53Z</time>
      </trkpt>
      <trkpt lat="45.49722" lon="3.59378">
        <ele>1018</ele>
        <time>2017-12-01T07:51:53Z</time>
      </trkpt>
      <trkpt lat="45.4963" lon="3.59292">
        <ele>1023</ele>
        <time>2017-12-01T07:53:53Z</time>
      </trkpt>
      <trkpt lat="45.49588" lon="3.59275">
        <ele>1025</ele>
        <time>2017-12-01T07:55:53Z</time>
      </trkpt>
      <trkpt lat="45.49516" lon="3.59303">
        <ele>1020</ele>
        <time>2017-12-01T07:57:53Z</time>
      </trkpt>
      <trkpt lat="45.49507" lon="3.59556">
        <ele>1017</ele>
        <time>2017-12-01T07:59:53Z</time>
      </trkpt>
      <trkpt lat="45.49495" lon="3.59692">
        <ele>1006</ele>
        <time>2017-12-01T08:01:53Z</time>
      </trkpt>
      <trkpt lat="45.49498" lon="3.59848">
        <ele>995</ele>
        <time>2017-12-01T08:03:53Z</time>
      </trkpt>
      <trkpt lat="45.49549" lon="3.59923">
        <ele>991</ele>
        <time>2017-12-01T08:05:53Z</time>
      </trkpt>
      <trkpt lat="45.49547" lon="3.59971">
        <ele>988</ele>
        <time>2017-12-01T08:07:53Z</time>
      </trkpt>
      <trkpt lat="45.4957" lon="3.60041">
        <ele>985</ele>
        <time>2017-12-01T08:09:53Z</time>
      </trkpt>
      <trkpt lat="45.4959" lon="3.60127">
        <ele>982</ele>
        <time>2017-12-01T08:11:53Z</time>
      </trkpt>
      <trkpt lat="45.49587" lon="3.60168">
        <ele>980</ele>
        <time>2017-12-01T08:13:53Z</time>
      </trkpt>
      <trkpt lat="45.49588" lon="3.60207">
        <ele>979</ele>
        <time>2017-12-01T08:15:53Z</time>
      </trkpt>
      <trkpt lat="45.496" lon="3.6025">
        <ele>979</ele>
        <time>2017-12-01T08:17:53Z</time>
      </trkpt>
      <trkpt lat="45.4961" lon="3.60314">
        <ele>976</ele>
        <time>2017-12-01T08:19:53Z</time>
      </trkpt>
      <trkpt lat="45.49623" lon="3.6033">
        <ele>976</ele>
        <time>2017-12-01T08:21:53Z</time>
      </trkpt>
      <trkpt lat="45.49649" lon="3.60367">
        <ele>973</ele>
        <time>2017-12-01T08:23:53Z</time>
      </trkpt>
      <trkpt lat="45.4967" lon="3.60483">
        <ele>960</ele>
        <time>2017-12-01T08:25:53Z</time>
      </trkpt>
      <trkpt lat="45.49695" lon="3.6057">
        <ele>949</ele>
        <time>2017-12-01T08:27:53Z</time>
      </trkpt>
      <trkpt lat="45.49706" lon="3.60655">
        <ele>942</ele>
        <time>2017-12-01T08:29:53Z</time>
      </trkpt>
      <trkpt lat="45.49725" lon="3.60692">
        <ele>939</ele>
        <time>2017-12-01T08:31:53Z</time>
      </trkpt>
      <trkpt lat="45.49749" lon="3.60721">
        <ele>937</ele>
        <time>2017-12-01T08:33:53Z</time>
      </trkpt>
      <trkpt lat="45.49788" lon="3.60734">
        <ele>937</ele>
        <time>2017-12-01T08:35:53Z</time>
      </trkpt>
      <trkpt lat="45.49792" lon="3.60778">
        <ele>939</ele>
        <time>2017-12-01T08:37:53Z</time>
      </trkpt>
      <trkpt lat="45.49797" lon="3.60815">
        <ele>943</ele>
        <time>2017-12-01T08:39:53Z</time>
      </trkpt>
      <trkpt lat="45.49768" lon="3.60869">
        <ele>942</ele>
        <time>2017-12-01T08:41:53Z</time>
      </trkpt>
      <trkpt lat="45.49768" lon="3.60903">
        <ele>944</ele>
        <time>2017-12-01T08:43:53Z</time>
      </trkpt>
      <trkpt lat="45.49782" lon="3.60957">
        <ele>950</ele>
        <time>2017-12-01T08:45:53Z</time>
      </trkpt>
      <trkpt lat="45.49779" lon="3.60983">
        <ele>951</ele>
        <time>2017-12-01T08:47:53Z</time>
      </trkpt>
      <trkpt lat="45.49582" lon="3.61174">
        <ele>956</ele>
        <time>2017-12-01T08:49:53Z</time>
      </trkpt>
      <trkpt lat="45.49604" lon="3.61202">
        <ele>962</ele>
        <time>2017-12-01T08:51:53Z</time>
      </trkpt>
      <trkpt lat="45.49679" lon="3.61204">
        <ele>969</ele>
        <time>2017-12-01T08:53:53Z</time>
      </trkpt>
      <trkpt lat="45.49725" lon="3.61277">
        <ele>975</ele>
        <time>2017-12-01T08:55:53Z</time>
      </trkpt>
      <trkpt lat="45.49696" lon="3.61298">
        <ele>975</ele>
        <time>2017-12-01T08:57:53Z</time>
      </trkpt>
      <trkpt lat="45.49698" lon="3.61376">
        <ele>980</ele>
        <time>2017-12-01T08:59:53Z</time>
      </trkpt>
      <trkpt lat="45.49672" lon="3.61522">
        <ele>989</ele>
        <time>2017-12-01T09:01:53Z</time>
      </trkpt>
      <trkpt lat="45.49644" lon="3.61673">
        <ele>998</ele>
        <time>2017-12-01T09:03:53Z</time>
      </trkpt>
      <trkpt lat="45.49623" lon="3.61749">
        <ele>1004</ele>
        <time>2017-12-01T09:05:53Z</time>
      </trkpt>
      <trkpt lat="45.49622" lon="3.61823">
        <ele>1011</ele>
        <time>2017-12-01T09:07:53Z</time>
      </trkpt>
      <trkpt lat="45.49558" lon="3.61792">
        <ele>1012</ele>
        <time>2017-12-01T09:09:53Z</time>
      </trkpt>
      <trkpt lat="45.49536" lon="3.61813">
        <ele>1016</ele>
        <time>2017-12-01T09:11:53Z</time>
      </trkpt>
      <trkpt lat="45.49526" lon="3.61843">
        <ele>1018</ele>
        <time>2017-12-01T09:13:53Z</time>
      </trkpt>
      <trkpt lat="45.49485" lon="3.61893">
        <ele>1019</ele>
        <time>2017-12-01T09:15:53Z</time>
      </trkpt>
      <trkpt lat="45.4937" lon="3.62024">
        <ele>1024</ele>
        <time>2017-12-01T09:17:53Z</time>
      </trkpt>
      <trkpt lat="45.4932" lon="3.62127">
        <ele>1020</ele>
        <time>2017-12-01T09:19:53Z</time>
      </trkpt>
      <trkpt lat="45.49316" lon="3.62158">
        <ele>1018</ele>
        <time>2017-12-01T09:21:53Z</time>
      </trkpt>
      <trkpt lat="45.49269" lon="3.62345">
        <ele>1009</ele>
        <time>2017-12-01T09:23:53Z</time>
      </trkpt>
      <trkpt lat="45.49227" lon="3.6252">
        <ele>998</ele>
        <time>2017-12-01T09:25:53Z</time>
      </trkpt>
      <trkpt lat="45.49251" lon="3.62586">
        <ele>996</ele>
        <time>2017-12-01T09:27:53Z</time>
      </trkpt>
      <trkpt lat="45.49203" lon="3.62649">
        <ele>994</ele>
        <time>2017-12-01T09:29:53Z</time>
      </trkpt>
      <trkpt lat="45.49168" lon="3.62756">
        <ele>993</ele>
        <time>2017-12-01T09:31:53Z</time>
      </trkpt>
      <trkpt lat="45.49131" lon="3.62826">
        <ele>998</ele>
        <time>2017-12-01T09:33:53Z</time>
      </trkpt>
      <trkpt lat="45.49069" lon="3.62919">
        <ele>1003</ele>
        <time>2017-12-01T09:35:53Z</time>
      </trkpt>
      <trkpt lat="45.49034" lon="3.62949">
        <ele>1005</ele>
        <time>2017-12-01T09:37:53Z</time>
      </trkpt>
      <trkpt lat="45.4899" lon="3.63013">
        <ele>1009</ele>
        <time>2017-12-01T09:39:53Z</time>
      </trkpt>
      <trkpt lat="45.48872" lon="3.63075">
        <ele>1012</ele>
        <time>2017-12-01T09:41:53Z</time>
      </trkpt>
      <trkpt lat="45.4885" lon="3.63104">
        <ele>1013</ele>
        <time>2017-12-01T09:43:53Z</time>
      </trkpt>
      <trkpt lat="45.48833" lon="3.63154">
        <ele>1014</ele>
        <time>2017-12-01T09:45:53Z</time>
      </trkpt>
      <trkpt lat="45.48836" lon="3.63218">
        <ele>1015</ele>
        <time>2017-12-01T09:47:53Z</time>
      </trkpt>
      <trkpt lat="45.48886" lon="3.63281">
        <ele>1015</ele>
        <time>2017-12-01T09:49:53Z</time>
      </trkpt>
      <trkpt lat="45.489" lon="3.63338">
        <ele>1014</ele>
        <time>2017-12-01T09:51:53Z</time>
      </trkpt>
      <trkpt lat="45.48864" lon="3.63477">
        <ele>1007</ele>
        <time>2017-12-01T09:53:53Z</time>
      </trkpt>
      <trkpt lat="45.4883" lon="3.6353">
        <ele>1003</ele>
        <time>2017-12-01T09:55:53Z</time>
      </trkpt>
      <trkpt lat="45.48754" lon="3.6361">
        <ele>1002</ele>
        <time>2017-12-01T09:57:53Z</time>
      </trkpt>
      <trkpt lat="45.48575" lon="3.63668">
        <ele>1013</ele>
        <time>2017-12-01T09:59:53Z</time>
      </trkpt>
      <trkpt lat="45.4855" lon="3.63666">
        <ele>1016</ele>
        <time>2017-12-01T10:01:53Z</time>
      </trkpt>
      <trkpt lat="45.48394" lon="3.63636">
        <ele>1033</ele>
        <time>2017-12-01T10:03:53Z</time>
      </trkpt>
      <trkpt lat="45.48355" lon="3.63646">
        <ele>1036</ele>
        <time>2017-12-01T10:05:53Z</time>
      </trkpt>
      <trkpt lat="45.48287" lon="3.63683">
        <ele>1036</ele>
        <time>2017-12-01T10:07:53Z</time>
      </trkpt>
      <trkpt lat="45.48221" lon="3.6371">
        <ele>1037</ele>
        <time>2017-12-01T10:09:53Z</time>
      </trkpt>
      <trkpt lat="45.4815" lon="3.63722">
        <ele>1039</ele>
        <time>2017-12-01T10:11:53Z</time>
      </trkpt>
      <trkpt lat="45.48092" lon="3.63721">
        <ele>1043</ele>
        <time>2017-12-01T10:13:53Z</time>
      </trkpt>
      <trkpt lat="45.48055" lon="3.63708">
        <ele>1043</ele>
        <time>2017-12-01T10:15:53Z</time>
      </trkpt>
      <trkpt lat="45.47998" lon="3.63735">
        <ele>1044</ele>
        <time>2017-12-01T10:17:53Z</time>
      </trkpt>
      <trkpt lat="45.47832" lon="3.63884">
        <ele>1044</ele>
        <time>2017-12-01T10:19:53Z</time>
      </trkpt>
      <trkpt lat="45.47673" lon="3.6397">
        <ele>1045</ele>
        <time>2017-12-01T10:21:53Z</time>
      </trkpt>
      <trkpt lat="45.47533" lon="3.63993">
        <ele>1044</ele>
        <time>2017-12-01T10:23:53Z</time>
      </trkpt>
      <trkpt lat="45.47405" lon="3.63892">
        <ele>1034</ele>
        <time>2017-12-01T10:25:53Z</time>
      </trkpt>
      <trkpt lat="45.47235" lon="3.638">
        <ele>1033</ele>
        <time>2017-12-01T10:27:53Z</time>
      </trkpt>
      <trkpt lat="45.47083" lon="3.63777">
        <ele>1028</ele>
        <time>2017-12-01T10:29:53Z</time>
      </trkpt>
      <trkpt lat="45.46868" lon="3.63693">
        <ele>1016</ele>
        <time>2017-12-01T10:31:53Z</time>
      </trkpt>
      <trkpt lat="45.46872" lon="3.63686">
        <ele>1016</ele>
        <time>2017-12-01T10:33:53Z</time>
      </trkpt>
      <trkpt lat="45.4688" lon="3.63691">
        <ele>1017</ele>
        <time>2017-12-01T10:35:53Z</time>
      </trkpt>
      <trkpt lat="45.46705" lon="3.6368">
        <ele>1013</ele>
        <time>2017-12-01T10:37:53Z</time>
      </trkpt>
      <trkpt lat="45.46546" lon="3.63755">
        <ele>1004</ele>
        <time>2017-12-01T10:39:53Z</time>
      </trkpt>
      <trkpt lat="45.46379" lon="3.63899">
        <ele>995</ele>
        <time>2017-12-01T10:41:53Z</time>
      </trkpt>
      <trkpt lat="45.4621" lon="3.64032">
        <ele>998</ele>
        <time>2017-12-01T10:43:53Z</time>
      </trkpt>
      <trkpt lat="45.46058" lon="3.64077">
        <ele>986</ele>
        <time>2017-12-01T10:45:53Z</time>
      </trkpt>
      <trkpt lat="45.46005" lon="3.64148">
        <ele>980</ele>
        <time>2017-12-01T10:47:53Z</time>
      </trkpt>
      <trkpt lat="45.45969" lon="3.64221">
        <ele>975</ele>
        <time>2017-12-01T10:49:53Z</time>
      </trkpt>
      <trkpt lat="45.45932" lon="3.64324">
        <ele>969</ele>
        <time>2017-12-01T10:51:53Z</time>
      </trkpt>
      <trkpt lat="45.45914" lon="3.64433">
        <ele>966</ele>
        <time>2017-12-01T10:53:53Z</time>
      </trkpt>
      <trkpt lat="45.45876" lon="3.64465">
        <ele>967</ele>
        <time>2017-12-01T10:55:53Z</time>
      </trkpt>
      <trkpt lat="45.4585" lon="3.64476">
        <ele>967</ele>
        <time>2017-12-01T10:57:53Z</time>
      </trkpt>
      <trkpt lat="45.45744" lon="3.64343">
        <ele>966</ele>
        <time>2017-12-01T10:59:53Z</time>
      </trkpt>
      <trkpt lat="45.45685" lon="3.64318">
        <ele>964</ele>
        <time>2017-12-01T11:01:53Z</time>
      </trkpt>
      <trkpt lat="45.45612" lon="3.64139">
        <ele>951</ele>
        <time>2017-12-01T11:03:53Z</time>
      </trkpt>
      <trkpt lat="45.45564" lon="3.64019">
        <ele>943</ele>
        <time>2017-12-01T11:05:53Z</time>
      </trkpt>
      <trkpt lat="45.45558" lon="3.6398">
        <ele>941</ele>
        <time>2017-12-01T11:07:53Z</time>
      </trkpt>
      <trkpt lat="45.45552" lon="3.63931">
        <ele>939</ele>
        <time>2017-12-01T11:09:53Z</time>
      </trkpt>
      <trkpt lat="45.45491" lon="3.63881">
        <ele>932</ele>
        <time>2017-12-01T11:11:53Z</time>
      </trkpt>
      <trkpt lat="45.45409" lon="3.63825">
        <ele>923</ele>
        <time>2017-12-01T11:13:53Z</time>
      </trkpt>
      <trkpt lat="45.4533" lon="3.63753">
        <ele>904</ele>
        <time>2017-12-01T11:15:53Z</time>
      </trkpt>
      <trkpt lat="45.45266" lon="3.63726">
        <ele>899</ele>
        <time>2017-12-01T11:17:53Z</time>
      </trkpt>
      <trkpt lat="45.45229" lon="3.63674">
        <ele>894</ele>
        <time>2017-12-01T11:19:53Z</time>
      </trkpt>
      <trkpt lat="45.45211" lon="3.63605">
        <ele>892</ele>
        <time>2017-12-01T11:21:53Z</time>
      </trkpt>
      <trkpt lat="45.45199" lon="3.63472">
        <ele>895</ele>
        <time>2017-12-01T11:23:53Z</time>
      </trkpt>
      <trkpt lat="45.45174" lon="3.63407">
        <ele>896</ele>
        <time>2017-12-01T11:25:53Z</time>
      </trkpt>
      <trkpt lat="45.45143" lon="3.63416">
        <ele>891</ele>
        <time>2017-12-01T11:27:53Z</time>
      </trkpt>
      <trkpt lat="45.45126" lon="3.63388">
        <ele>890</ele>
        <time>2017-12-01T11:29:53Z</time>
      </trkpt>
      <trkpt lat="45.45119" lon="3.63445">
        <ele>884</ele>
        <time>2017-12-01T11:31:53Z</time>
      </trkpt>
      <trkpt lat="45.45022" lon="3.63418">
        <ele>871</ele>
        <time>2017-12-01T11:33:53Z</time>
      </trkpt>
      <trkpt lat="45.45009" lon="3.63431">
        <ele>868</ele>
        <time>2017-12-01T11:35:53Z</time>
      </trkpt>
      <trkpt lat="45.45001" lon="3.63519">
        <ele>866</ele>
        <time>2017-12-01T11:37:53Z</time>
      </trkpt>
      <trkpt lat="45.44965" lon="3.63558">
        <ele>867</ele>
        <time>2017-12-01T11:39:53Z</time>
      </trkpt>
      <trkpt lat="45.44875" lon="3.63571">
        <ele>862</ele>
        <time>2017-12-01T11:41:53Z</time>
      </trkpt>
      <trkpt lat="45.44794" lon="3.63652">
        <ele>859</ele>
        <time>2017-12-01T11:43:53Z</time>
      </trkpt>
      <trkpt lat="45.447" lon="3.63727">
        <ele>853</ele>
        <time>2017-12-01T11:45:53Z</time>
      </trkpt>
      <trkpt lat="45.44568" lon="3.63813">
        <ele>838</ele>
        <time>2017-12-01T11:47:53Z</time>
      </trkpt>
      <trkpt lat="45.44508" lon="3.63877">
        <ele>835</ele>
        <time>2017-12-01T11:49:53Z</time>
      </trkpt>
      <trkpt lat="45.44456" lon="3.63955">
        <ele>835</ele>
        <time>2017-12-01T11:51:53Z</time>
      </trkpt>
      <trkpt lat="45.44437" lon="3.63897">
        <ele>825</ele>
        <time>2017-12-01T11:53:53Z</time>
      </trkpt>
      <trkpt lat="45.44402" lon="3.63858">
        <ele>821</ele>
        <time>2017-12-01T11:55:53Z</time>
      </trkpt>
      <trkpt lat="45.44347" lon="3.63766">
        <ele>829</ele>
        <time>2017-12-01T11:57:53Z</time>
      </trkpt>
      <trkpt lat="45.44383" lon="3.63676">
        <ele>831</ele>
        <time>2017-12-01T11:59:53Z</time>
      </trkpt>
      <trkpt lat="45.44378" lon="3.63517">
        <ele>847</ele>
        <time>2017-12-01T12:01:53Z</time>
      </trkpt>
      <trkpt lat="45.44365" lon="3.6345">
        <ele>852</ele>
        <time>2017-12-01T12:03:53Z</time>
      </trkpt>
      <trkpt lat="45.44381" lon="3.63395">
        <ele>855</ele>
        <time>2017-12-01T12:05:53Z</time>
      </trkpt>
      <trkpt lat="45.44316" lon="3.63437">
        <ele>855</ele>
        <time>2017-12-01T12:07:53Z</time>
      </trkpt>
      <trkpt lat="45.44181" lon="3.63453">
        <ele>859</ele>
        <time>2017-12-01T12:09:53Z</time>
      </trkpt>
      <trkpt lat="45.44149" lon="3.63517">
        <ele>861</ele>
        <time>2017-12-01T12:11:53Z</time>
      </trkpt>
      <trkpt lat="45.44098" lon="3.63483">
        <ele>865</ele>
        <time>2017-12-01T12:13:53Z</time>
      </trkpt>
      <trkpt lat="45.4397" lon="3.63309">
        <ele>888</ele>
        <time>2017-12-01T12:15:53Z</time>
      </trkpt>
      <trkpt lat="45.43904" lon="3.63292">
        <ele>897</ele>
        <time>2017-12-01T12:17:53Z</time>
      </trkpt>
      <trkpt lat="45.43853" lon="3.63234">
        <ele>904</ele>
        <time>2017-12-01T12:19:53Z</time>
      </trkpt>
      <trkpt lat="45.43737" lon="3.63165">
        <ele>922</ele>
        <time>2017-12-01T12:21:53Z</time>
      </trkpt>
      <trkpt lat="45.43672" lon="3.63159">
        <ele>929</ele>
        <time>2017-12-01T12:23:53Z</time>
      </trkpt>
      <trkpt lat="45.43594" lon="3.63107">
        <ele>936</ele>
        <time>2017-12-01T12:25:53Z</time>
      </trkpt>
      <trkpt lat="45.43508" lon="3.63077">
        <ele>937</ele>
        <time>2017-12-01T12:27:53Z</time>
      </trkpt>
      <trkpt lat="45.43443" lon="3.63006">
        <ele>940</ele>
        <time>2017-12-01T12:29:53Z</time>
      </trkpt>
      <trkpt lat="45.43386" lon="3.6294">
        <ele>942</ele>
        <time>2017-12-01T12:31:53Z</time>
      </trkpt>
      <trkpt lat="45.43256" lon="3.62852">
        <ele>942</ele>
        <time>2017-12-01T12:33:53Z</time>
      </trkpt>
      <trkpt lat="45.43107" lon="3.62813">
        <ele>944</ele>
        <time>2017-12-01T12:35:53Z</time>
      </trkpt>
      <trkpt lat="45.42975" lon="3.62802">
        <ele>946</ele>
        <time>2017-12-01T12:37:53Z</time>
      </trkpt>
      <trkpt lat="45.42841" lon="3.6277">
        <ele>951</ele>
        <time>2017-12-01T12:39:53Z</time>
      </trkpt>
      <trkpt lat="45.42726" lon="3.62785">
        <ele>949</ele>
        <time>2017-12-01T12:41:53Z</time>
      </trkpt>
      <trkpt lat="45.42654" lon="3.62759">
        <ele>952</ele>
        <time>2017-12-01T12:43:53Z</time>
      </trkpt>
      <trkpt lat="45.42493" lon="3.6282">
        <ele>952</ele>
        <time>2017-12-01T12:45:53Z</time>
      </trkpt>
      <trkpt lat="45.42314" lon="3.62862">
        <ele>953</ele>
        <time>2017-12-01T12:47:53Z</time>
      </trkpt>
      <trkpt lat="45.42258" lon="3.6291">
        <ele>957</ele>
        <time>2017-12-01T12:49:53Z</time>
      </trkpt>
      <trkpt lat="45.4218" lon="3.62914">
        <ele>955</ele>
        <time>2017-12-01T12:51:53Z</time>
      </trkpt>
      <trkpt lat="45.41936" lon="3.62957">
        <ele>945</ele>
        <time>2017-12-01T12:53:53Z</time>
      </trkpt>
      <trkpt lat="45.41764" lon="3.62959">
        <ele>942</ele>
        <time>2017-12-01T12:55:53Z</time>
      </trkpt>
      <trkpt lat="45.41659" lon="3.63036">
        <ele>941</ele>
        <time>2017-12-01T12:57:53Z</time>
      </trkpt>
      <trkpt lat="45.41567" lon="3.63071">
        <ele>941</ele>
        <time>2017-12-01T12:59:53Z</time>
      </trkpt>
      <trkpt lat="45.41406" lon="3.63221">
        <ele>949</ele>
        <time>2017-12-01T13:01:53Z</time>
      </trkpt>
      <trkpt lat="45.41109" lon="3.6341">
        <ele>960</ele>
        <time>2017-12-01T13:03:53Z</time>
      </trkpt>
      <trkpt lat="45.41012" lon="3.63506">
        <ele>961</ele>
        <time>2017-12-01T13:05:53Z</time>
      </trkpt>
      <trkpt lat="45.40887" lon="3.63596">
        <ele>962</ele>
        <time>2017-12-01T13:07:53Z</time>
      </trkpt>
      <trkpt lat="45.40785" lon="3.63665">
        <ele>958</ele>
        <time>2017-12-01T13:09:53Z</time>
      </trkpt>
      <trkpt lat="45.40563" lon="3.63811">
        <ele>948</ele>
        <time>2017-12-01T13:11:53Z</time>
      </trkpt>
      <trkpt lat="45.40449" lon="3.63886">
        <ele>945</ele>
        <time>2017-12-01T13:13:53Z</time>
      </trkpt>
      <trkpt lat="45.40313" lon="3.63942">
        <ele>948</ele>
        <time>2017-12-01T13:15:53Z</time>
      </trkpt>
      <trkpt lat="45.40185" lon="3.63998">
        <ele>943</ele>
        <time>2017-12-01T13:17:53Z</time>
      </trkpt>
      <trkpt lat="45.40108" lon="3.63991">
        <ele>941</ele>
        <time>2017-12-01T13:19:53Z</time>
      </trkpt>
      <trkpt lat="45.39967" lon="3.64021">
        <ele>931</ele>
        <time>2017-12-01T13:21:53Z</time>
      </trkpt>
      <trkpt lat="45.39822" lon="3.6407">
        <ele>923</ele>
        <time>2017-12-01T13:23:53Z</time>
      </trkpt>
      <trkpt lat="45.39684" lon="3.64251">
        <ele>905</ele>
        <time>2017-12-01T13:25:53Z</time>
      </trkpt>
      <trkpt lat="45.3962" lon="3.64255">
        <ele>898</ele>
        <time>2017-12-01T13:27:53Z</time>
      </trkpt>
      <trkpt lat="45.39542" lon="3.64302">
        <ele>890</ele>
        <time>2017-12-01T13:29:53Z</time>
      </trkpt>
      <trkpt lat="45.39489" lon="3.64379">
        <ele>885</ele>
        <time>2017-12-01T13:31:53Z</time>
      </trkpt>
      <trkpt lat="45.39417" lon="3.64407">
        <ele>881</ele>
        <time>2017-12-01T13:33:53Z</time>
      </trkpt>
      <trkpt lat="45.39348" lon="3.64397">
        <ele>876</ele>
        <time>2017-12-01T13:35:53Z</time>
      </trkpt>
      <trkpt lat="45.39307" lon="3.64379">
        <ele>874</ele>
        <time>2017-12-01T13:37:53Z</time>
      </trkpt>
      <trkpt lat="45.39229" lon="3.64407">
        <ele>869</ele>
        <time>2017-12-01T13:39:53Z</time>
      </trkpt>
      <trkpt lat="45.39177" lon="3.64371">
        <ele>864</ele>
        <time>2017-12-01T13:41:53Z</time>
      </trkpt>
      <trkpt lat="45.39094" lon="3.64345">
        <ele>853</ele>
        <time>2017-12-01T13:43:53Z</time>
      </trkpt>
      <trkpt lat="45.39061" lon="3.64281">
        <ele>839</ele>
        <time>2017-12-01T13:45:53Z</time>
      </trkpt>
      <trkpt lat="45.3901" lon="3.64231">
        <ele>831</ele>
        <time>2017-12-01T13:47:53Z</time>
      </trkpt>
      <trkpt lat="45.38971" lon="3.64225">
        <ele>835</ele>
        <time>2017-12-01T13:49:53Z</time>
      </trkpt>
      <trkpt lat="45.38932" lon="3.64287">
        <ele>834</ele>
        <time>2017-12-01T13:51:53Z</time>
      </trkpt>
      <trkpt lat="45.38843" lon="3.64313">
        <ele>846</ele>
        <time>2017-12-01T13:53:53Z</time>
      </trkpt>
      <trkpt lat="45.38784" lon="3.64345">
        <ele>847</ele>
        <time>2017-12-01T13:55:53Z</time>
      </trkpt>
      <trkpt lat="45.38644" lon="3.64358">
        <ele>849</ele>
        <time>2017-12-01T13:57:53Z</time>
      </trkpt>
      <trkpt lat="45.38593" lon="3.64307">
        <ele>856</ele>
        <time>2017-12-01T13:59:53Z</time>
      </trkpt>
      <trkpt lat="45.38498" lon="3.64274">
        <ele>861</ele>
        <time>2017-12-01T14:01:53Z</time>
      </trkpt>
      <trkpt lat="45.38458" lon="3.64204">
        <ele>868</ele>
        <time>2017-12-01T14:03:53Z</time>
      </trkpt>
      <trkpt lat="45.38383" lon="3.64088">
        <ele>876</ele>
        <time>2017-12-01T14:05:53Z</time>
      </trkpt>
      <trkpt lat="45.3833" lon="3.64141">
        <ele>872</ele>
        <time>2017-12-01T14:07:53Z</time>
      </trkpt>
      <trkpt lat="45.38243" lon="3.64141">
        <ele>867</ele>
        <time>2017-12-01T14:09:53Z</time>
      </trkpt>
      <trkpt lat="45.38166" lon="3.64201">
        <ele>867</ele>
        <time>2017-12-01T14:11:53Z</time>
      </trkpt>
      <trkpt lat="45.38047" lon="3.64264">
        <ele>851</ele>
        <time>2017-12-01T14:13:53Z</time>
      </trkpt>
      <trkpt lat="45.3802" lon="3.64227">
        <ele>849</ele>
        <time>2017-12-01T14:15:53Z</time>
      </trkpt>
      <trkpt lat="45.38" lon="3.64266">
        <ele>844</ele>
        <time>2017-12-01T14:17:53Z</time>
      </trkpt>
      <trkpt lat="45.38021" lon="3.64343">
        <ele>842</ele>
        <time>2017-12-01T14:19:53Z</time>
      </trkpt>
      <trkpt lat="45.38021" lon="3.64399">
        <ele>842</ele>
        <time>2017-12-01T14:21:53Z</time>
      </trkpt>
      <trkpt lat="45.37963" lon="3.64401">
        <ele>848</ele>
        <time>2017-12-01T14:23:53Z</time>
      </trkpt>
      <trkpt lat="45.3786" lon="3.64594">
        <ele>878</ele>
        <time>2017-12-01T14:25:53Z</time>
      </trkpt>
      <trkpt lat="45.37807" lon="3.64691">
        <ele>885</ele>
        <time>2017-12-01T14:27:53Z</time>
      </trkpt>
      <trkpt lat="45.37792" lon="3.64772">
        <ele>891</ele>
        <time>2017-12-01T14:29:53Z</time>
      </trkpt>
      <trkpt lat="45.37743" lon="3.64774">
        <ele>892</ele>
        <time>2017-12-01T14:31:53Z</time>
      </trkpt>
      <trkpt lat="45.37693" lon="3.64699">
        <ele>889</ele>
        <time>2017-12-01T14:33:53Z</time>
      </trkpt>
      <trkpt lat="45.37586" lon="3.64609">
        <ele>891</ele>
        <time>2017-12-01T14:35:53Z</time>
      </trkpt>
      <trkpt lat="45.37471" lon="3.64489">
        <ele>878</ele>
        <time>2017-12-01T14:37:53Z</time>
      </trkpt>
      <trkpt lat="45.3742" lon="3.6448">
        <ele>874</ele>
        <time>2017-12-01T14:39:53Z</time>
      </trkpt>
      <trkpt lat="45.37385" lon="3.64354">
        <ele>866</ele>
        <time>2017-12-01T14:41:53Z</time>
      </trkpt>
      <trkpt lat="45.37381" lon="3.64246">
        <ele>855</ele>
        <time>2017-12-01T14:43:53Z</time>
      </trkpt>
      <trkpt lat="45.37342" lon="3.64167">
        <ele>848</ele>
        <time>2017-12-01T14:45:53Z</time>
      </trkpt>
      <trkpt lat="45.37284" lon="3.64128">
        <ele>845</ele>
        <time>2017-12-01T14:47:53Z</time>
      </trkpt>
      <trkpt lat="45.37195" lon="3.64066">
        <ele>840</ele>
        <time>2017-12-01T14:49:53Z</time>
      </trkpt>
      <trkpt lat="45.37152" lon="3.63995">
        <ele>836</ele>
        <time>2017-12-01T14:51:53Z</time>
      </trkpt>
      <trkpt lat="45.37126" lon="3.6395">
        <ele>838</ele>
        <time>2017-12-01T14:53:53Z</time>
      </trkpt>
      <trkpt lat="45.37014" lon="3.63899">
        <ele>842</ele>
        <time>2017-12-01T14:55:53Z</time>
      </trkpt>
      <trkpt lat="45.36956" lon="3.63862">
        <ele>844</ele>
        <time>2017-12-01T14:57:53Z</time>
      </trkpt>
      <trkpt lat="45.36876" lon="3.63854">
        <ele>846</ele>
        <time>2017-12-01T14:59:53Z</time>
      </trkpt>
      <trkpt lat="45.36823" lon="3.63815">
        <ele>847</ele>
        <time>2017-12-01T15:01:53Z</time>
      </trkpt>
      <trkpt lat="45.36686" lon="3.63873">
        <ele>849</ele>
        <time>2017-12-01T15:03:53Z</time>
      </trkpt>
      <trkpt lat="45.36607" lon="3.63895">
        <ele>849</ele>
        <time>2017-12-01T15:05:53Z</time>
      </trkpt>
      <trkpt lat="45.36585" lon="3.6394">
        <ele>849</ele>
        <time>2017-12-01T15:07:53Z</time>
      </trkpt>
      <trkpt lat="45.36531" lon="3.63933">
        <ele>852</ele>
        <time>2017-12-01T15:09:53Z</time>
      </trkpt>
      <trkpt lat="45.36436" lon="3.63993">
        <ele>857</ele>
        <time>2017-12-01T15:11:53Z</time>
      </trkpt>
      <trkpt lat="45.36211" lon="3.6418">
        <ele>862</ele>
        <time>2017-12-01T15:13:53Z</time>
      </trkpt>
      <trkpt lat="45.3611" lon="3.64204">
        <ele>866</ele>
        <time>2017-12-01T15:15:53Z</time>
      </trkpt>
      <trkpt lat="45.36051" lon="3.64156">
        <ele>870</ele>
        <time>2017-12-01T15:17:53Z</time>
      </trkpt>
      <trkpt lat="45.36013" lon="3.64109">
        <ele>869</ele>
        <time>2017-12-01T15:19:53Z</time>
      </trkpt>
      <trkpt lat="45.35971" lon="3.6407">
        <ele>871</ele>
        <time>2017-12-01T15:21:53Z</time>
      </trkpt>
      <trkpt lat="45.35928" lon="3.64079">
        <ele>877</ele>
        <time>2017-12-01T15:23:53Z</time>
      </trkpt>
      <trkpt lat="45.35804" lon="3.64073">
        <ele>898</ele>
        <time>2017-12-01T15:25:53Z</time>
      </trkpt>
      <trkpt lat="45.3578" lon="3.64137">
        <ele>900</ele>
        <time>2017-12-01T15:27:53Z</time>
      </trkpt>
      <trkpt lat="45.35721" lon="3.64165">
        <ele>907</ele>
        <time>2017-12-01T15:29:53Z</time>
      </trkpt>
      <trkpt lat="45.35585" lon="3.64182">
        <ele>926</ele>
        <time>2017-12-01T15:31:53Z</time>
      </trkpt>
      <trkpt lat="45.35389" lon="3.64255">
        <ele>931</ele>
        <time>2017-12-01T15:33:53Z</time>
      </trkpt>
      <trkpt lat="45.35272" lon="3.64319">
        <ele>929</ele>
        <time>2017-12-01T15:35:53Z</time>
      </trkpt>
      <trkpt lat="45.35155" lon="3.64437">
        <ele>931</ele>
        <time>2017-12-01T15:37:53Z</time>
      </trkpt>
      <trkpt lat="45.35051" lon="3.64562">
        <ele>935</ele>
        <time>2017-12-01T15:39:53Z</time>
      </trkpt>
      <trkpt lat="45.34962" lon="3.6457">
        <ele>938</ele>
        <time>2017-12-01T15:41:53Z</time>
      </trkpt>
      <trkpt lat="45.34857" lon="3.64609">
        <ele>939</ele>
        <time>2017-12-01T15:43:53Z</time>
      </trkpt>
      <trkpt lat="45.34782" lon="3.64671">
        <ele>942</ele>
        <time>2017-12-01T15:45:53Z</time>
      </trkpt>
      <trkpt lat="45.34757" lon="3.64783">
        <ele>948</ele>
        <time>2017-12-01T15:47:53Z</time>
      </trkpt>
      <trkpt lat="45.34751" lon="3.65227">
        <ele>962</ele>
        <time>2017-12-01T15:49:53Z</time>
      </trkpt>
      <trkpt lat="45.34812" lon="3.65397">
        <ele>973</ele>
        <time>2017-12-01T15:51:53Z</time>
      </trkpt>
      <trkpt lat="45.34426" lon="3.65783">
        <ele>985</ele>
        <time>2017-12-01T15:53:53Z</time>
      </trkpt>
      <trkpt lat="45.34388" lon="3.65811">
        <ele>988</ele>
        <time>2017-12-01T15:55:53Z</time>
      </trkpt>
      <trkpt lat="45.34316" lon="3.65817">
        <ele>987</ele>
        <time>2017-12-01T15:57:53Z</time>
      </trkpt>
      <trkpt lat="45.34306" lon="3.65869">
        <ele>989</ele>
        <time>2017-12-01T15:59:53Z</time>
      </trkpt>
      <trkpt lat="45.34314" lon="3.65931">
        <ele>994</ele>
        <time>2017-12-01T16:01:53Z</time>
      </trkpt>
      <trkpt lat="45.34435" lon="3.66124">
        <ele>1003</ele>
        <time>2017-12-01T16:03:53Z</time>
      </trkpt>
      <trkpt lat="45.34347" lon="3.66077">
        <ele>997</ele>
        <time>2017-12-01T16:05:53Z</time>
      </trkpt>
      <trkpt lat="45.34323" lon="3.66158">
        <ele>1002</ele>
        <time>2017-12-01T16:07:53Z</time>
      </trkpt>
      <trkpt lat="45.34278" lon="3.66296">
        <ele>996</ele>
        <time>2017-12-01T16:09:53Z</time>
      </trkpt>
      <trkpt lat="45.34225" lon="3.66394">
        <ele>981</ele>
        <time>2017-12-01T16:11:53Z</time>
      </trkpt>
      <trkpt lat="45.34183" lon="3.66439">
        <ele>972</ele>
        <time>2017-12-01T16:13:53Z</time>
      </trkpt>
      <trkpt lat="45.34076" lon="3.66457">
        <ele>969</ele>
        <time>2017-12-01T16:15:53Z</time>
      </trkpt>
      <trkpt lat="45.34011" lon="3.66549">
        <ele>961</ele>
        <time>2017-12-01T16:17:53Z</time>
      </trkpt>
      <trkpt lat="45.33994" lon="3.66652">
        <ele>980</ele>
        <time>2017-12-01T16:19:53Z</time>
      </trkpt>
      <trkpt lat="45.3407" lon="3.66624">
        <ele>983</ele>
        <time>2017-12-01T16:21:53Z</time>
      </trkpt>
      <trkpt lat="45.33949" lon="3.66733">
        <ele>993</ele>
        <time>2017-12-01T16:23:53Z</time>
      </trkpt>
      <trkpt lat="45.33854" lon="3.66834">
        <ele>993</ele>
        <time>2017-12-01T16:25:53Z</time>
      </trkpt>
      <trkpt lat="45.33678" lon="3.6706">
        <ele>1011</ele>
        <time>2017-12-01T16:27:53Z</time>
      </trkpt>
      <trkpt lat="45.33637" lon="3.67156">
        <ele>1016</ele>
        <time>2017-12-01T16:29:53Z</time>
      </trkpt>
      <trkpt lat="45.3359" lon="3.67184">
        <ele>1017</ele>
        <time>2017-12-01T16:31:53Z</time>
      </trkpt>
      <trkpt lat="45.33522" lon="3.67199">
        <ele>1018</ele>
        <time>2017-12-01T16:33:53Z</time>
      </trkpt>
      <trkpt lat="45.33374" lon="3.67278">
        <ele>1016</ele>
        <time>2017-12-01T16:35:53Z</time>
      </trkpt>
      <trkpt lat="45.33317" lon="3.67351">
        <ele>1023</ele>
        <time>2017-12-01T16:37:53Z</time>
      </trkpt>
      <trkpt lat="45.3326" lon="3.67439">
        <ele>1029</ele>
        <time>2017-12-01T16:39:53Z</time>
      </trkpt>
      <trkpt lat="45.33201" lon="3.67452">
        <ele>1034</ele>
        <time>2017-12-01T16:41:53Z</time>
      </trkpt>
      <trkpt lat="45.33086" lon="3.67441">
        <ele>1034</ele>
        <time>2017-12-01T16:43:53Z</time>
      </trkpt>
      <trkpt lat="45.33" lon="3.67487">
        <ele>1035</ele>
        <time>2017-12-01T16:45:53Z</time>
      </trkpt>
      <trkpt lat="45.32913" lon="3.67654">
        <ele>1045</ele>
        <time>2017-12-01T16:47:53Z</time>
      </trkpt>
      <trkpt lat="45.32804" lon="3.67828">
        <ele>1042</ele>
        <time>2017-12-01T16:49:53Z</time>
      </trkpt>
      <trkpt lat="45.32765" lon="3.67911">
        <ele>1039</ele>
        <time>2017-12-01T16:51:53Z</time>
      </trkpt>
      <trkpt lat="45.32783" lon="3.67982">
        <ele>1036</ele>
        <time>2017-12-01T16:53:53Z</time>
      </trkpt>
      <trkpt lat="45.32738" lon="3.68137">
        <ele>1024</ele>
        <time>2017-12-01T16:55:53Z</time>
      </trkpt>
      <trkpt lat="45.32762" lon="3.6818">
        <ele>1023</ele>
        <time>2017-12-01T16:57:53Z</time>
      </trkpt>
      <trkpt lat="45.32791" lon="3.68261">
        <ele>1017</ele>
        <time>2017-12-01T16:59:53Z</time>
      </trkpt>
      <trkpt lat="45.32818" lon="3.68326">
        <ele>1014</ele>
        <time>2017-12-01T17:01:53Z</time>
      </trkpt>
      <trkpt lat="45.32864" lon="3.68358">
        <ele>1011</ele>
        <time>2017-12-01T17:03:53Z</time>
      </trkpt>
      <trkpt lat="45.32935" lon="3.68417">
        <ele>1009</ele>
        <time>2017-12-01T17:05:53Z</time>
      </trkpt>
      <trkpt lat="45.32929" lon="3.68499">
        <ele>1011</ele>
        <time>2017-12-01T17:07:53Z</time>
      </trkpt>
      <trkpt lat="45.32852" lon="3.68613">
        <ele>1017</ele>
        <time>2017-12-01T17:09:53Z</time>
      </trkpt>
      <trkpt lat="45.32772" lon="3.68677">
        <ele>1016</ele>
        <time>2017-12-01T17:11:53Z</time>
      </trkpt>
      <trkpt lat="45.32705" lon="3.68695">
        <ele>1016</ele>
        <time>2017-12-01T17:13:53Z</time>
      </trkpt>
      <trkpt lat="45.32649" lon="3.68685">
        <ele>1014</ele>
        <time>2017-12-01T17:15:53Z</time>
      </trkpt>
      <trkpt lat="45.32619" lon="3.68706">
        <ele>1014</ele>
        <time>2017-12-01T17:17:53Z</time>
      </trkpt>
      <trkpt lat="45.32497" lon="3.68926">
        <ele>1020</ele>
        <time>2017-12-01T17:19:53Z</time>
      </trkpt>
      <trkpt lat="45.32428" lon="3.69044">
        <ele>1014</ele>
        <time>2017-12-01T17:21:53Z</time>
      </trkpt>
      <trkpt lat="45.32311" lon="3.69167">
        <ele>1012</ele>
        <time>2017-12-01T17:23:53Z</time>
      </trkpt>
      <trkpt lat="45.32299" lon="3.69169">
        <ele>1013</ele>
        <time>2017-12-01T17:25:53Z</time>
      </trkpt>
      <trkpt lat="45.32227" lon="3.69183">
        <ele>1019</ele>
        <time>2017-12-01T17:27:53Z</time>
      </trkpt>
      <trkpt lat="45.32207" lon="3.69175">
        <ele>1018</ele>
        <time>2017-12-01T17:29:53Z</time>
      </trkpt>
      <trkpt lat="45.32186" lon="3.69228">
        <ele>1026</ele>
        <time>2017-12-01T17:31:53Z</time>
      </trkpt>
      <trkpt lat="45.32167" lon="3.69308">
        <ele>1037</ele>
        <time>2017-12-01T17:33:53Z</time>
      </trkpt>
      <trkpt lat="45.3213" lon="3.6934">
        <ele>1040</ele>
        <time>2017-12-01T17:35:53Z</time>
      </trkpt>
      <trkpt lat="45.32128" lon="3.69374">
        <ele>1045</ele>
        <time>2017-12-01T17:37:53Z</time>
      </trkpt>
      <trkpt lat="45.32127" lon="3.69457">
        <ele>1056</ele>
        <time>2017-12-01T17:39:53Z</time>
      </trkpt>
      <trkpt lat="45.32119" lon="3.69522">
        <ele>1062</ele>
        <time>2017-12-01T17:41:53Z</time>
      </trkpt>
    </trkseg>
  </trk>
</gpx>